<?xml version='1.0' encoding='UTF-8'?>
<gpx version="1.1" creator="https://www.komoot.de" xmlns="http://www.topografix.com/GPX/1/1" xmlns:xsi="http://www.w3.org/2001/XMLSchema-instance" xsi:schemaLocation="http://www.topografix.com/GPX/1/1 http://www.topografix.com/GPX/1/1/gpx.xsd">
  <metadata>
    <name>GPX Download: Focke Museum – Radweg am Corporalsdeich Runde von Bremen Hauptbahnhof</name>
    <author>
      <link href="https://www.komoot.de">
        <text>komoot</text>
        <type>text/html</type>
      </link>
    </author>
  </metadata>
  <wpt lat="53.086485" lon="8.833381">
    <name>Fahrradstraße Wachmannstraße</name>
    <sym>Flag, Blue</sym>
  </wpt>
  <wpt lat="53.091930" lon="8.863736">
    <name>Focke Museum</name>
    <sym>Flag, Blue</sym>
  </wpt>
  <wpt lat="53.077599" lon="8.955231">
    <name>Blick auf die Wümmewiesen vom Hodenberger Deich</name>
    <sym>Flag, Blue</sym>
  </wpt>
  <wpt lat="53.075330" lon="8.962660">
    <name>Bultensee</name>
    <sym>Flag, Blue</sym>
  </wpt>
  <wpt lat="53.011248" lon="9.002481">
    <name>Radweg am Corporalsdeich</name>
    <sym>Flag, Blue</sym>
  </wpt>
  <wpt lat="53.016677" lon="8.920787">
    <name>Weser-Radweg</name>
    <sym>Flag, Blue</sym>
  </wpt>
  <wpt lat="53.017392" lon="8.916434">
    <name>Weserdeichweg</name>
    <sym>Flag, Blue</sym>
  </wpt>
  <wpt lat="53.017944" lon="8.912825">
    <name>Weser-Deich-Radweg Richtung Bollen</name>
    <sym>Flag, Blue</sym>
  </wpt>
  <trk>
    <name>GPX Download: Focke Museum – Radweg am Corporalsdeich Runde von Bremen Hauptbahnhof</name>
    <trkseg>
      <trkpt lat="53.099426" lon="8.887200">
        <ele>5.397560</ele>
        <time>2026-03-20T11:29:34.293Z</time>
      </trkpt>
      <trkpt lat="53.099356" lon="8.887015">
        <ele>5.397560</ele>
        <time>2026-03-20T11:29:37.195Z</time>
      </trkpt>
      <trkpt lat="53.099467" lon="8.886673">
        <ele>5.397560</ele>
        <time>2026-03-20T11:29:42.625Z</time>
      </trkpt>
      <trkpt lat="53.099493" lon="8.886593">
        <ele>5.397560</ele>
        <time>2026-03-20T11:29:43.874Z</time>
      </trkpt>
      <trkpt lat="53.099683" lon="8.886010">
        <ele>5.397560</ele>
        <time>2026-03-20T11:29:53.364Z</time>
      </trkpt>
      <trkpt lat="53.099723" lon="8.885887">
        <ele>5.397902</ele>
        <time>2026-03-20T11:29:55.341Z</time>
      </trkpt>
      <trkpt lat="53.099820" lon="8.885586">
        <ele>5.428353</ele>
        <time>2026-03-20T11:30:00.320Z</time>
      </trkpt>
      <trkpt lat="53.099930" lon="8.885243">
        <ele>5.463016</ele>
        <time>2026-03-20T11:30:05.920Z</time>
      </trkpt>
      <trkpt lat="53.100135" lon="8.884581">
        <ele>5.529411</ele>
        <time>2026-03-20T11:30:16.216Z</time>
      </trkpt>
      <trkpt lat="53.100187" lon="8.884418">
        <ele>5.545865</ele>
        <time>2026-03-20T11:30:18.757Z</time>
      </trkpt>
      <trkpt lat="53.100233" lon="8.884272">
        <ele>5.560562</ele>
        <time>2026-03-20T11:30:21.077Z</time>
      </trkpt>
      <trkpt lat="53.100527" lon="8.883407">
        <ele>5.649163</ele>
        <time>2026-03-20T11:30:36.002Z</time>
      </trkpt>
      <trkpt lat="53.100607" lon="8.883193">
        <ele>5.631572</ele>
        <time>2026-03-20T11:30:39.849Z</time>
      </trkpt>
      <trkpt lat="53.100646" lon="8.883089">
        <ele>5.580353</ele>
        <time>2026-03-20T11:30:41.687Z</time>
      </trkpt>
      <trkpt lat="53.100684" lon="8.882987">
        <ele>5.530211</ele>
        <time>2026-03-20T11:30:43.464Z</time>
      </trkpt>
      <trkpt lat="53.100847" lon="8.882554">
        <ele>5.316732</ele>
        <time>2026-03-20T11:30:50.493Z</time>
      </trkpt>
      <trkpt lat="53.100893" lon="8.882430">
        <ele>5.255848</ele>
        <time>2026-03-20T11:30:52.351Z</time>
      </trkpt>
      <trkpt lat="53.100916" lon="8.882369">
        <ele>5.225760</ele>
        <time>2026-03-20T11:30:53.268Z</time>
      </trkpt>
      <trkpt lat="53.101067" lon="8.881965">
        <ele>5.026979</ele>
        <time>2026-03-20T11:30:58.924Z</time>
      </trkpt>
      <trkpt lat="53.101202" lon="8.881633">
        <ele>4.859490</ele>
        <time>2026-03-20T11:31:03.502Z</time>
      </trkpt>
      <trkpt lat="53.101257" lon="8.881490">
        <ele>4.788553</ele>
        <time>2026-03-20T11:31:05.546Z</time>
      </trkpt>
      <trkpt lat="53.101436" lon="8.881104">
        <ele>4.584827</ele>
        <time>2026-03-20T11:31:11.567Z</time>
      </trkpt>
      <trkpt lat="53.101611" lon="8.880805">
        <ele>4.411960</ele>
        <time>2026-03-20T11:31:16.549Z</time>
      </trkpt>
      <trkpt lat="53.101685" lon="8.880687">
        <ele>4.379457</ele>
        <time>2026-03-20T11:31:18.607Z</time>
      </trkpt>
      <trkpt lat="53.101754" lon="8.880548">
        <ele>4.345102</ele>
        <time>2026-03-20T11:31:20.756Z</time>
      </trkpt>
      <trkpt lat="53.101812" lon="8.880427">
        <ele>4.315608</ele>
        <time>2026-03-20T11:31:22.566Z</time>
      </trkpt>
      <trkpt lat="53.101751" lon="8.880280">
        <ele>4.281570</ele>
        <time>2026-03-20T11:31:24.718Z</time>
      </trkpt>
      <trkpt lat="53.101617" lon="8.879845">
        <ele>4.188439</ele>
        <time>2026-03-20T11:31:30.735Z</time>
      </trkpt>
      <trkpt lat="53.101502" lon="8.879452">
        <ele>4.105160</ele>
        <time>2026-03-20T11:31:36.467Z</time>
      </trkpt>
      <trkpt lat="53.101436" lon="8.879002">
        <ele>4.016921</ele>
        <time>2026-03-20T11:31:42.902Z</time>
      </trkpt>
      <trkpt lat="53.101430" lon="8.878532">
        <ele>3.927372</ele>
        <time>2026-03-20T11:31:50.020Z</time>
      </trkpt>
      <trkpt lat="53.101427" lon="8.877890">
        <ele>3.850284</ele>
        <time>2026-03-20T11:31:59.618Z</time>
      </trkpt>
      <trkpt lat="53.101421" lon="8.877351">
        <ele>3.871277</ele>
        <time>2026-03-20T11:32:07.730Z</time>
      </trkpt>
      <trkpt lat="53.101420" lon="8.876628">
        <ele>3.899431</ele>
        <time>2026-03-20T11:32:18.421Z</time>
      </trkpt>
      <trkpt lat="53.101420" lon="8.875725">
        <ele>3.934594</ele>
        <time>2026-03-20T11:32:30.122Z</time>
      </trkpt>
      <trkpt lat="53.101420" lon="8.875557">
        <ele>3.941136</ele>
        <time>2026-03-20T11:32:32.312Z</time>
      </trkpt>
      <trkpt lat="53.101420" lon="8.875333">
        <ele>3.949859</ele>
        <time>2026-03-20T11:32:35.293Z</time>
      </trkpt>
      <trkpt lat="53.101434" lon="8.874867">
        <ele>3.970983</ele>
        <time>2026-03-20T11:32:41.751Z</time>
      </trkpt>
      <trkpt lat="53.101444" lon="8.874320">
        <ele>3.999482</ele>
        <time>2026-03-20T11:32:49.535Z</time>
      </trkpt>
      <trkpt lat="53.101427" lon="8.873944">
        <ele>4.019118</ele>
        <time>2026-03-20T11:32:54.805Z</time>
      </trkpt>
      <trkpt lat="53.101384" lon="8.873777">
        <ele>4.028581</ele>
        <time>2026-03-20T11:32:57.326Z</time>
      </trkpt>
      <trkpt lat="53.101297" lon="8.873569">
        <ele>4.041782</ele>
        <time>2026-03-20T11:33:00.759Z</time>
      </trkpt>
      <trkpt lat="53.100470" lon="8.872744">
        <ele>4.145507</ele>
        <time>2026-03-20T11:33:24.120Z</time>
      </trkpt>
      <trkpt lat="53.099477" lon="8.871810">
        <ele>4.440972</ele>
        <time>2026-03-20T11:33:52.202Z</time>
      </trkpt>
      <trkpt lat="53.099448" lon="8.871781">
        <ele>4.449736</ele>
        <time>2026-03-20T11:33:53.009Z</time>
      </trkpt>
      <trkpt lat="53.098463" lon="8.870816">
        <ele>4.500682</ele>
        <time>2026-03-20T11:34:19.766Z</time>
      </trkpt>
      <trkpt lat="53.098554" lon="8.869791">
        <ele>4.421725</ele>
        <time>2026-03-20T11:34:33.716Z</time>
      </trkpt>
      <trkpt lat="53.098806" lon="8.867309">
        <ele>4.146156</ele>
        <time>2026-03-20T11:35:07.158Z</time>
      </trkpt>
      <trkpt lat="53.098940" lon="8.865874">
        <ele>3.959096</ele>
        <time>2026-03-20T11:35:26.957Z</time>
      </trkpt>
      <trkpt lat="53.099102" lon="8.864173">
        <ele>3.712119</ele>
        <time>2026-03-20T11:35:49.972Z</time>
      </trkpt>
      <trkpt lat="53.099227" lon="8.862951">
        <ele>3.544235</ele>
        <time>2026-03-20T11:36:06.428Z</time>
      </trkpt>
      <trkpt lat="53.099264" lon="8.862590">
        <ele>3.585681</ele>
        <time>2026-03-20T11:36:11.294Z</time>
      </trkpt>
      <trkpt lat="53.099366" lon="8.861538">
        <ele>3.706281</ele>
        <time>2026-03-20T11:36:26.342Z</time>
      </trkpt>
      <trkpt lat="53.099177" lon="8.861850">
        <ele>3.756439</ele>
        <time>2026-03-20T11:36:32.844Z</time>
      </trkpt>
      <trkpt lat="53.099092" lon="8.862066">
        <ele>3.785666</ele>
        <time>2026-03-20T11:36:36.684Z</time>
      </trkpt>
      <trkpt lat="53.099054" lon="8.861959">
        <ele>3.799736</ele>
        <time>2026-03-20T11:36:38.514Z</time>
      </trkpt>
      <trkpt lat="53.099010" lon="8.861759">
        <ele>3.823842</ele>
        <time>2026-03-20T11:36:43.466Z</time>
      </trkpt>
      <trkpt lat="53.098993" lon="8.861713">
        <ele>3.829955</ele>
        <time>2026-03-20T11:36:44.261Z</time>
      </trkpt>
      <trkpt lat="53.098956" lon="8.861689">
        <ele>3.837439</ele>
        <time>2026-03-20T11:36:45.181Z</time>
      </trkpt>
      <trkpt lat="53.098899" lon="8.861648">
        <ele>3.849142</ele>
        <time>2026-03-20T11:36:46.681Z</time>
      </trkpt>
      <trkpt lat="53.098777" lon="8.861611">
        <ele>3.872515</ele>
        <time>2026-03-20T11:36:49.647Z</time>
      </trkpt>
      <trkpt lat="53.098646" lon="8.861503">
        <ele>3.906045</ele>
        <time>2026-03-20T11:36:53.166Z</time>
      </trkpt>
      <trkpt lat="53.098433" lon="8.861258">
        <ele>3.968616</ele>
        <time>2026-03-20T11:36:59.402Z</time>
      </trkpt>
      <trkpt lat="53.098280" lon="8.860990">
        <ele>4.022287</ele>
        <time>2026-03-20T11:37:04.731Z</time>
      </trkpt>
      <trkpt lat="53.098089" lon="8.860877">
        <ele>4.071280</ele>
        <time>2026-03-20T11:37:09.675Z</time>
      </trkpt>
      <trkpt lat="53.098088" lon="8.859672">
        <ele>4.246169</ele>
        <time>2026-03-20T11:37:26.209Z</time>
      </trkpt>
      <trkpt lat="53.098028" lon="8.858970">
        <ele>4.281906</ele>
        <time>2026-03-20T11:37:35.592Z</time>
      </trkpt>
      <trkpt lat="53.097849" lon="8.857534">
        <ele>4.091179</ele>
        <time>2026-03-20T11:37:54.824Z</time>
      </trkpt>
      <trkpt lat="53.097708" lon="8.856740">
        <ele>3.983502</ele>
        <time>2026-03-20T11:38:05.316Z</time>
      </trkpt>
      <trkpt lat="53.097505" lon="8.855805">
        <ele>3.801586</ele>
        <time>2026-03-20T11:38:17.501Z</time>
      </trkpt>
      <trkpt lat="53.096875" lon="8.854346">
        <ele>3.391947</ele>
        <time>2026-03-20T11:38:39.663Z</time>
      </trkpt>
      <trkpt lat="53.096649" lon="8.853794">
        <ele>3.243364</ele>
        <time>2026-03-20T11:38:48.221Z</time>
      </trkpt>
      <trkpt lat="53.096673" lon="8.853746">
        <ele>3.261228</ele>
        <time>2026-03-20T11:38:49.031Z</time>
      </trkpt>
      <trkpt lat="53.096687" lon="8.853718">
        <ele>3.271648</ele>
        <time>2026-03-20T11:38:49.516Z</time>
      </trkpt>
      <trkpt lat="53.096705" lon="8.853681">
        <ele>3.285267</ele>
        <time>2026-03-20T11:38:50.162Z</time>
      </trkpt>
      <trkpt lat="53.096721" lon="8.853650">
        <ele>3.296958</ele>
        <time>2026-03-20T11:38:50.720Z</time>
      </trkpt>
      <trkpt lat="53.096754" lon="8.853584">
        <ele>3.321521</ele>
        <time>2026-03-20T11:38:51.887Z</time>
      </trkpt>
      <trkpt lat="53.096320" lon="8.852657">
        <ele>3.657699</ele>
        <time>2026-03-20T11:39:08.851Z</time>
      </trkpt>
      <trkpt lat="53.095746" lon="8.851551">
        <ele>4.075786</ele>
        <time>2026-03-20T11:39:30.906Z</time>
      </trkpt>
      <trkpt lat="53.095310" lon="8.850832">
        <ele>4.416985</ele>
        <time>2026-03-20T11:39:46.075Z</time>
      </trkpt>
      <trkpt lat="53.095187" lon="8.850632">
        <ele>4.513704</ele>
        <time>2026-03-20T11:39:50.439Z</time>
      </trkpt>
      <trkpt lat="53.094876" lon="8.850143">
        <ele>4.754346</ele>
        <time>2026-03-20T11:40:01.328Z</time>
      </trkpt>
      <trkpt lat="53.094760" lon="8.849960">
        <ele>4.844245</ele>
        <time>2026-03-20T11:40:05.381Z</time>
      </trkpt>
      <trkpt lat="53.094653" lon="8.849789">
        <ele>4.927682</ele>
        <time>2026-03-20T11:40:09.004Z</time>
      </trkpt>
      <trkpt lat="53.094152" lon="8.848967">
        <ele>5.198058</ele>
        <time>2026-03-20T11:40:25.920Z</time>
      </trkpt>
      <trkpt lat="53.093949" lon="8.848636">
        <ele>5.264060</ele>
        <time>2026-03-20T11:40:32.594Z</time>
      </trkpt>
      <trkpt lat="53.093763" lon="8.848336">
        <ele>5.324215</ele>
        <time>2026-03-20T11:40:38.631Z</time>
      </trkpt>
      <trkpt lat="53.093564" lon="8.848018">
        <ele>5.388288</ele>
        <time>2026-03-20T11:40:44.829Z</time>
      </trkpt>
      <trkpt lat="53.093407" lon="8.847767">
        <ele>5.438848</ele>
        <time>2026-03-20T11:40:49.647Z</time>
      </trkpt>
      <trkpt lat="53.093270" lon="8.847546">
        <ele>5.483160</ele>
        <time>2026-03-20T11:40:53.964Z</time>
      </trkpt>
      <trkpt lat="53.092974" lon="8.847098">
        <ele>5.598850</ele>
        <time>2026-03-20T11:41:03.133Z</time>
      </trkpt>
      <trkpt lat="53.092749" lon="8.846820">
        <ele>5.694604</ele>
        <time>2026-03-20T11:41:09.552Z</time>
      </trkpt>
      <trkpt lat="53.092663" lon="8.846719">
        <ele>5.730571</ele>
        <time>2026-03-20T11:41:11.976Z</time>
      </trkpt>
      <trkpt lat="53.092299" lon="8.846342">
        <ele>5.877076</ele>
        <time>2026-03-20T11:41:21.843Z</time>
      </trkpt>
      <trkpt lat="53.092258" lon="8.846304">
        <ele>5.893113</ele>
        <time>2026-03-20T11:41:22.932Z</time>
      </trkpt>
      <trkpt lat="53.092075" lon="8.846140">
        <ele>5.964140</ele>
        <time>2026-03-20T11:41:27.966Z</time>
      </trkpt>
      <trkpt lat="53.091706" lon="8.845829">
        <ele>6.105488</ele>
        <time>2026-03-20T11:41:38.392Z</time>
      </trkpt>
      <trkpt lat="53.091572" lon="8.845722">
        <ele>6.156771</ele>
        <time>2026-03-20T11:41:42.159Z</time>
      </trkpt>
      <trkpt lat="53.091493" lon="8.845664">
        <ele>6.187334</ele>
        <time>2026-03-20T11:41:44.295Z</time>
      </trkpt>
      <trkpt lat="53.091397" lon="8.845594">
        <ele>6.224431</ele>
        <time>2026-03-20T11:41:46.867Z</time>
      </trkpt>
      <trkpt lat="53.091214" lon="8.845459">
        <ele>6.295282</ele>
        <time>2026-03-20T11:41:51.676Z</time>
      </trkpt>
      <trkpt lat="53.091088" lon="8.845356">
        <ele>6.344969</ele>
        <time>2026-03-20T11:41:55.048Z</time>
      </trkpt>
      <trkpt lat="53.090974" lon="8.845237">
        <ele>6.392597</ele>
        <time>2026-03-20T11:41:58.245Z</time>
      </trkpt>
      <trkpt lat="53.090474" lon="8.844703">
        <ele>6.602865</ele>
        <time>2026-03-20T11:42:12.398Z</time>
      </trkpt>
      <trkpt lat="53.089994" lon="8.844108">
        <ele>6.758990</ele>
        <time>2026-03-20T11:42:26.118Z</time>
      </trkpt>
      <trkpt lat="53.089546" lon="8.843473">
        <ele>6.640577</ele>
        <time>2026-03-20T11:42:38.418Z</time>
      </trkpt>
      <trkpt lat="53.089252" lon="8.843039">
        <ele>6.561498</ele>
        <time>2026-03-20T11:42:46.745Z</time>
      </trkpt>
      <trkpt lat="53.088893" lon="8.842434">
        <ele>6.458694</ele>
        <time>2026-03-20T11:42:57.987Z</time>
      </trkpt>
      <trkpt lat="53.088809" lon="8.842302">
        <ele>6.435447</ele>
        <time>2026-03-20T11:43:00.540Z</time>
      </trkpt>
      <trkpt lat="53.088765" lon="8.842223">
        <ele>6.422424</ele>
        <time>2026-03-20T11:43:02.383Z</time>
      </trkpt>
      <trkpt lat="53.088684" lon="8.842433">
        <ele>6.441200</ele>
        <time>2026-03-20T11:43:05.694Z</time>
      </trkpt>
      <trkpt lat="53.088662" lon="8.842383">
        <ele>6.448425</ele>
        <time>2026-03-20T11:43:06.487Z</time>
      </trkpt>
      <trkpt lat="53.088624" lon="8.842269">
        <ele>6.463624</ele>
        <time>2026-03-20T11:43:08.162Z</time>
      </trkpt>
      <trkpt lat="53.088562" lon="8.842083">
        <ele>6.488422</ele>
        <time>2026-03-20T11:43:10.947Z</time>
      </trkpt>
      <trkpt lat="53.088225" lon="8.840854">
        <ele>6.645915</ele>
        <time>2026-03-20T11:43:29.908Z</time>
      </trkpt>
      <trkpt lat="53.087665" lon="8.838697">
        <ele>7.006531</ele>
        <time>2026-03-20T11:44:03.632Z</time>
      </trkpt>
      <trkpt lat="53.087636" lon="8.838586">
        <ele>7.028607</ele>
        <time>2026-03-20T11:44:05.410Z</time>
      </trkpt>
      <trkpt lat="53.087547" lon="8.838229">
        <ele>7.099101</ele>
        <time>2026-03-20T11:44:10.997Z</time>
      </trkpt>
      <trkpt lat="53.087438" lon="8.837787">
        <ele>7.186241</ele>
        <time>2026-03-20T11:44:17.806Z</time>
      </trkpt>
      <trkpt lat="53.087336" lon="8.837358">
        <ele>7.270388</ele>
        <time>2026-03-20T11:44:24.208Z</time>
      </trkpt>
      <trkpt lat="53.087263" lon="8.837058">
        <ele>7.307284</ele>
        <time>2026-03-20T11:44:28.592Z</time>
      </trkpt>
      <trkpt lat="53.087175" lon="8.836735">
        <ele>7.287566</ele>
        <time>2026-03-20T11:44:33.251Z</time>
      </trkpt>
      <trkpt lat="53.087101" lon="8.836420">
        <ele>7.268762</ele>
        <time>2026-03-20T11:44:37.575Z</time>
      </trkpt>
      <trkpt lat="53.086988" lon="8.835925">
        <ele>7.239322</ele>
        <time>2026-03-20T11:44:44.488Z</time>
      </trkpt>
      <trkpt lat="53.086846" lon="8.835341">
        <ele>7.204295</ele>
        <time>2026-03-20T11:44:52.822Z</time>
      </trkpt>
      <trkpt lat="53.086767" lon="8.835016">
        <ele>7.184803</ele>
        <time>2026-03-20T11:44:57.329Z</time>
      </trkpt>
      <trkpt lat="53.086747" lon="8.834936">
        <ele>7.179985</ele>
        <time>2026-03-20T11:44:58.413Z</time>
      </trkpt>
      <trkpt lat="53.086677" lon="8.834647">
        <ele>7.162661</ele>
        <time>2026-03-20T11:45:02.414Z</time>
      </trkpt>
      <trkpt lat="53.086553" lon="8.834140">
        <ele>7.150113</ele>
        <time>2026-03-20T11:45:09.644Z</time>
      </trkpt>
      <trkpt lat="53.086488" lon="8.833875">
        <ele>7.154917</ele>
        <time>2026-03-20T11:45:13.410Z</time>
      </trkpt>
      <trkpt lat="53.086401" lon="8.833563">
        <ele>7.160690</ele>
        <time>2026-03-20T11:45:17.809Z</time>
      </trkpt>
      <trkpt lat="53.086405" lon="8.833410">
        <ele>7.163261</ele>
        <time>2026-03-20T11:45:19.868Z</time>
      </trkpt>
      <trkpt lat="53.086471" lon="8.833344">
        <ele>7.165412</ele>
        <time>2026-03-20T11:45:22.033Z</time>
      </trkpt>
      <trkpt lat="53.086588" lon="8.833805">
        <ele>7.173812</ele>
        <time>2026-03-20T11:45:30.987Z</time>
      </trkpt>
      <trkpt lat="53.086488" lon="8.833875">
        <ele>7.176843</ele>
        <time>2026-03-20T11:45:33.620Z</time>
      </trkpt>
      <trkpt lat="53.086553" lon="8.834140">
        <ele>7.181648</ele>
        <time>2026-03-20T11:45:37.477Z</time>
      </trkpt>
      <trkpt lat="53.086677" lon="8.834647">
        <ele>7.190835</ele>
        <time>2026-03-20T11:45:44.848Z</time>
      </trkpt>
      <trkpt lat="53.086747" lon="8.834936">
        <ele>7.196066</ele>
        <time>2026-03-20T11:45:49.163Z</time>
      </trkpt>
      <trkpt lat="53.086767" lon="8.835016">
        <ele>7.197939</ele>
        <time>2026-03-20T11:45:50.420Z</time>
      </trkpt>
      <trkpt lat="53.086846" lon="8.835341">
        <ele>7.205731</ele>
        <time>2026-03-20T11:45:55.332Z</time>
      </trkpt>
      <trkpt lat="53.086988" lon="8.835925">
        <ele>7.219733</ele>
        <time>2026-03-20T11:46:03.848Z</time>
      </trkpt>
      <trkpt lat="53.087101" lon="8.836420">
        <ele>7.231501</ele>
        <time>2026-03-20T11:46:11.092Z</time>
      </trkpt>
      <trkpt lat="53.087175" lon="8.836735">
        <ele>7.239018</ele>
        <time>2026-03-20T11:46:15.815Z</time>
      </trkpt>
      <trkpt lat="53.087263" lon="8.837058">
        <ele>7.246900</ele>
        <time>2026-03-20T11:46:20.626Z</time>
      </trkpt>
      <trkpt lat="53.087336" lon="8.837358">
        <ele>7.254094</ele>
        <time>2026-03-20T11:46:24.903Z</time>
      </trkpt>
      <trkpt lat="53.087438" lon="8.837787">
        <ele>7.248490</ele>
        <time>2026-03-20T11:46:30.847Z</time>
      </trkpt>
      <trkpt lat="53.087547" lon="8.838229">
        <ele>7.151559</ele>
        <time>2026-03-20T11:46:36.855Z</time>
      </trkpt>
      <trkpt lat="53.087636" lon="8.838586">
        <ele>7.073145</ele>
        <time>2026-03-20T11:46:41.660Z</time>
      </trkpt>
      <trkpt lat="53.087665" lon="8.838697">
        <ele>7.048589</ele>
        <time>2026-03-20T11:46:43.136Z</time>
      </trkpt>
      <trkpt lat="53.088225" lon="8.840854">
        <ele>6.679288</ele>
        <time>2026-03-20T11:47:12.490Z</time>
      </trkpt>
      <trkpt lat="53.088562" lon="8.842083">
        <ele>6.758327</ele>
        <time>2026-03-20T11:47:30.550Z</time>
      </trkpt>
      <trkpt lat="53.088662" lon="8.842383">
        <ele>6.778400</ele>
        <time>2026-03-20T11:47:35.414Z</time>
      </trkpt>
      <trkpt lat="53.088684" lon="8.842433">
        <ele>6.782026</ele>
        <time>2026-03-20T11:47:36.290Z</time>
      </trkpt>
      <trkpt lat="53.088637" lon="8.842560">
        <ele>6.790753</ele>
        <time>2026-03-20T11:47:38.527Z</time>
      </trkpt>
      <trkpt lat="53.088609" lon="8.842645">
        <ele>6.796425</ele>
        <time>2026-03-20T11:47:39.966Z</time>
      </trkpt>
      <trkpt lat="53.088549" lon="8.842671">
        <ele>6.802464</ele>
        <time>2026-03-20T11:47:41.517Z</time>
      </trkpt>
      <trkpt lat="53.088492" lon="8.842700">
        <ele>6.808270</ele>
        <time>2026-03-20T11:47:43.010Z</time>
      </trkpt>
      <trkpt lat="53.088455" lon="8.843012">
        <ele>6.826875</ele>
        <time>2026-03-20T11:47:47.782Z</time>
      </trkpt>
      <trkpt lat="53.088434" lon="8.843133">
        <ele>6.844023</ele>
        <time>2026-03-20T11:47:49.713Z</time>
      </trkpt>
      <trkpt lat="53.088169" lon="8.843845">
        <ele>7.019407</ele>
        <time>2026-03-20T11:48:02.378Z</time>
      </trkpt>
      <trkpt lat="53.088078" lon="8.844090">
        <ele>7.079723</ele>
        <time>2026-03-20T11:48:06.758Z</time>
      </trkpt>
      <trkpt lat="53.087781" lon="8.844886">
        <ele>7.275935</ele>
        <time>2026-03-20T11:48:20.709Z</time>
      </trkpt>
      <trkpt lat="53.087702" lon="8.845099">
        <ele>7.328352</ele>
        <time>2026-03-20T11:48:24.300Z</time>
      </trkpt>
      <trkpt lat="53.087674" lon="8.845176">
        <ele>7.347199</ele>
        <time>2026-03-20T11:48:25.580Z</time>
      </trkpt>
      <trkpt lat="53.087552" lon="8.845503">
        <ele>7.427803</ele>
        <time>2026-03-20T11:48:31.005Z</time>
      </trkpt>
      <trkpt lat="53.087533" lon="8.845552">
        <ele>7.440015</ele>
        <time>2026-03-20T11:48:31.825Z</time>
      </trkpt>
      <trkpt lat="53.087350" lon="8.846044">
        <ele>7.443245</ele>
        <time>2026-03-20T11:48:40.136Z</time>
      </trkpt>
      <trkpt lat="53.087290" lon="8.846204">
        <ele>7.437812</ele>
        <time>2026-03-20T11:48:42.865Z</time>
      </trkpt>
      <trkpt lat="53.087224" lon="8.846382">
        <ele>7.431786</ele>
        <time>2026-03-20T11:48:45.922Z</time>
      </trkpt>
      <trkpt lat="53.087175" lon="8.846515">
        <ele>7.427292</ele>
        <time>2026-03-20T11:48:48.195Z</time>
      </trkpt>
      <trkpt lat="53.086961" lon="8.847107">
        <ele>7.407390</ele>
        <time>2026-03-20T11:48:58.255Z</time>
      </trkpt>
      <trkpt lat="53.086728" lon="8.847737">
        <ele>7.386079</ele>
        <time>2026-03-20T11:49:08.437Z</time>
      </trkpt>
      <trkpt lat="53.086573" lon="8.848157">
        <ele>7.371879</ele>
        <time>2026-03-20T11:49:14.911Z</time>
      </trkpt>
      <trkpt lat="53.086498" lon="8.848357">
        <ele>7.259782</ele>
        <time>2026-03-20T11:49:17.782Z</time>
      </trkpt>
      <trkpt lat="53.086446" lon="8.848499">
        <ele>7.173085</ele>
        <time>2026-03-20T11:49:19.751Z</time>
      </trkpt>
      <trkpt lat="53.086320" lon="8.848838">
        <ele>6.965268</ele>
        <time>2026-03-20T11:49:24.536Z</time>
      </trkpt>
      <trkpt lat="53.086166" lon="8.849154">
        <ele>6.753136</ele>
        <time>2026-03-20T11:49:29.475Z</time>
      </trkpt>
      <trkpt lat="53.086160" lon="8.849164">
        <ele>6.745768</ele>
        <time>2026-03-20T11:49:29.651Z</time>
      </trkpt>
      <trkpt lat="53.086003" lon="8.849403">
        <ele>6.561132</ele>
        <time>2026-03-20T11:49:33.926Z</time>
      </trkpt>
      <trkpt lat="53.085972" lon="8.849416">
        <ele>6.533386</ele>
        <time>2026-03-20T11:49:34.558Z</time>
      </trkpt>
      <trkpt lat="53.085830" lon="8.849497">
        <ele>6.403108</ele>
        <time>2026-03-20T11:49:37.529Z</time>
      </trkpt>
      <trkpt lat="53.085704" lon="8.849690">
        <ele>6.254509</ele>
        <time>2026-03-20T11:49:40.880Z</time>
      </trkpt>
      <trkpt lat="53.085536" lon="8.849767">
        <ele>6.103273</ele>
        <time>2026-03-20T11:49:44.349Z</time>
      </trkpt>
      <trkpt lat="53.085495" lon="8.849785">
        <ele>6.066472</ele>
        <time>2026-03-20T11:49:45.205Z</time>
      </trkpt>
      <trkpt lat="53.085344" lon="8.849844">
        <ele>5.931854</ele>
        <time>2026-03-20T11:49:48.346Z</time>
      </trkpt>
      <trkpt lat="53.085256" lon="8.849856">
        <ele>5.855221</ele>
        <time>2026-03-20T11:49:50.115Z</time>
      </trkpt>
      <trkpt lat="53.085184" lon="8.849864">
        <ele>5.819544</ele>
        <time>2026-03-20T11:49:51.612Z</time>
      </trkpt>
      <trkpt lat="53.085095" lon="8.849899">
        <ele>5.861970</ele>
        <time>2026-03-20T11:49:53.472Z</time>
      </trkpt>
      <trkpt lat="53.085096" lon="8.850019">
        <ele>5.895412</ele>
        <time>2026-03-20T11:49:54.960Z</time>
      </trkpt>
      <trkpt lat="53.085098" lon="8.850163">
        <ele>5.935548</ele>
        <time>2026-03-20T11:49:56.825Z</time>
      </trkpt>
      <trkpt lat="53.085106" lon="8.850384">
        <ele>5.997241</ele>
        <time>2026-03-20T11:49:59.820Z</time>
      </trkpt>
      <trkpt lat="53.085178" lon="8.850836">
        <ele>6.127545</ele>
        <time>2026-03-20T11:50:07.333Z</time>
      </trkpt>
      <trkpt lat="53.085304" lon="8.851197">
        <ele>6.243889</ele>
        <time>2026-03-20T11:50:14.376Z</time>
      </trkpt>
      <trkpt lat="53.085551" lon="8.851597">
        <ele>6.403746</ele>
        <time>2026-03-20T11:50:23.534Z</time>
      </trkpt>
      <trkpt lat="53.085791" lon="8.851954">
        <ele>6.553054</ele>
        <time>2026-03-20T11:50:32.088Z</time>
      </trkpt>
      <trkpt lat="53.085952" lon="8.852187">
        <ele>6.648410</ele>
        <time>2026-03-20T11:50:37.749Z</time>
      </trkpt>
      <trkpt lat="53.086021" lon="8.852284">
        <ele>6.669920</ele>
        <time>2026-03-20T11:50:40.075Z</time>
      </trkpt>
      <trkpt lat="53.086334" lon="8.852755">
        <ele>6.770408</ele>
        <time>2026-03-20T11:50:51.083Z</time>
      </trkpt>
      <trkpt lat="53.086704" lon="8.853247">
        <ele>6.883193</ele>
        <time>2026-03-20T11:51:02.822Z</time>
      </trkpt>
      <trkpt lat="53.086863" lon="8.853417">
        <ele>6.928200</ele>
        <time>2026-03-20T11:51:07.057Z</time>
      </trkpt>
      <trkpt lat="53.087583" lon="8.853992">
        <ele>7.042929</ele>
        <time>2026-03-20T11:51:24.929Z</time>
      </trkpt>
      <trkpt lat="53.087862" lon="8.854212">
        <ele>6.994199</ele>
        <time>2026-03-20T11:51:31.822Z</time>
      </trkpt>
      <trkpt lat="53.088140" lon="8.854457">
        <ele>6.944548</ele>
        <time>2026-03-20T11:51:38.982Z</time>
      </trkpt>
      <trkpt lat="53.088433" lon="8.854895">
        <ele>6.882392</ele>
        <time>2026-03-20T11:51:47.984Z</time>
      </trkpt>
      <trkpt lat="53.088521" lon="8.855125">
        <ele>6.856539</ele>
        <time>2026-03-20T11:51:51.690Z</time>
      </trkpt>
      <trkpt lat="53.088615" lon="8.855543">
        <ele>6.814224</ele>
        <time>2026-03-20T11:51:57.674Z</time>
      </trkpt>
      <trkpt lat="53.088739" lon="8.856371">
        <ele>6.797387</ele>
        <time>2026-03-20T11:52:09.055Z</time>
      </trkpt>
      <trkpt lat="53.088892" lon="8.857364">
        <ele>6.811846</ele>
        <time>2026-03-20T11:52:23.268Z</time>
      </trkpt>
      <trkpt lat="53.089025" lon="8.857975">
        <ele>6.821012</ele>
        <time>2026-03-20T11:52:32.686Z</time>
      </trkpt>
      <trkpt lat="53.089138" lon="8.858407">
        <ele>6.827658</ele>
        <time>2026-03-20T11:52:39.365Z</time>
      </trkpt>
      <trkpt lat="53.089362" lon="8.859066">
        <ele>6.768264</ele>
        <time>2026-03-20T11:52:50.128Z</time>
      </trkpt>
      <trkpt lat="53.089431" lon="8.859265">
        <ele>6.739096</ele>
        <time>2026-03-20T11:52:53.387Z</time>
      </trkpt>
      <trkpt lat="53.089721" lon="8.860197">
        <ele>6.605857</ele>
        <time>2026-03-20T11:53:07.909Z</time>
      </trkpt>
      <trkpt lat="53.089952" lon="8.861487">
        <ele>6.421649</ele>
        <time>2026-03-20T11:53:25.162Z</time>
      </trkpt>
      <trkpt lat="53.090104" lon="8.862629">
        <ele>6.150797</ele>
        <time>2026-03-20T11:53:40.026Z</time>
      </trkpt>
      <trkpt lat="53.090148" lon="8.862849">
        <ele>6.097105</ele>
        <time>2026-03-20T11:53:43.043Z</time>
      </trkpt>
      <trkpt lat="53.090246" lon="8.862888">
        <ele>6.058255</ele>
        <time>2026-03-20T11:53:45.238Z</time>
      </trkpt>
      <trkpt lat="53.090331" lon="8.862920">
        <ele>6.024655</ele>
        <time>2026-03-20T11:53:47.142Z</time>
      </trkpt>
      <trkpt lat="53.090456" lon="8.862946">
        <ele>5.976084</ele>
        <time>2026-03-20T11:53:50.662Z</time>
      </trkpt>
      <trkpt lat="53.091291" lon="8.863333">
        <ele>5.748048</ele>
        <time>2026-03-20T11:54:15.526Z</time>
      </trkpt>
      <trkpt lat="53.091499" lon="8.863438">
        <ele>5.741078</ele>
        <time>2026-03-20T11:54:21.913Z</time>
      </trkpt>
      <trkpt lat="53.091679" lon="8.863450">
        <ele>5.735302</ele>
        <time>2026-03-20T11:54:27.246Z</time>
      </trkpt>
      <trkpt lat="53.091794" lon="8.863632">
        <ele>5.730214</ele>
        <time>2026-03-20T11:54:30.945Z</time>
      </trkpt>
      <trkpt lat="53.091855" lon="8.863696">
        <ele>5.727902</ele>
        <time>2026-03-20T11:54:32.626Z</time>
      </trkpt>
      <trkpt lat="53.091929" lon="8.863739">
        <ele>5.725389</ele>
        <time>2026-03-20T11:54:34.443Z</time>
      </trkpt>
      <trkpt lat="53.091855" lon="8.863696">
        <ele>5.722876</ele>
        <time>2026-03-20T11:54:36.263Z</time>
      </trkpt>
      <trkpt lat="53.091794" lon="8.863632">
        <ele>5.720564</ele>
        <time>2026-03-20T11:54:37.922Z</time>
      </trkpt>
      <trkpt lat="53.091679" lon="8.863450">
        <ele>5.715476</ele>
        <time>2026-03-20T11:54:41.562Z</time>
      </trkpt>
      <trkpt lat="53.091499" lon="8.863438">
        <ele>5.709699</ele>
        <time>2026-03-20T11:54:46.784Z</time>
      </trkpt>
      <trkpt lat="53.091291" lon="8.863333">
        <ele>5.702730</ele>
        <time>2026-03-20T11:54:53.121Z</time>
      </trkpt>
      <trkpt lat="53.090456" lon="8.862946">
        <ele>5.700000</ele>
        <time>2026-03-20T11:55:18.362Z</time>
      </trkpt>
      <trkpt lat="53.090331" lon="8.862920">
        <ele>5.700000</ele>
        <time>2026-03-20T11:55:22.049Z</time>
      </trkpt>
      <trkpt lat="53.090246" lon="8.862888">
        <ele>5.700000</ele>
        <time>2026-03-20T11:55:24.090Z</time>
      </trkpt>
      <trkpt lat="53.090148" lon="8.862849">
        <ele>5.700000</ele>
        <time>2026-03-20T11:55:26.456Z</time>
      </trkpt>
      <trkpt lat="53.090200" lon="8.863050">
        <ele>5.700000</ele>
        <time>2026-03-20T11:55:29.589Z</time>
      </trkpt>
      <trkpt lat="53.090232" lon="8.863170">
        <ele>5.700000</ele>
        <time>2026-03-20T11:55:31.505Z</time>
      </trkpt>
      <trkpt lat="53.090401" lon="8.864022">
        <ele>5.706366</ele>
        <time>2026-03-20T11:55:43.943Z</time>
      </trkpt>
      <trkpt lat="53.090496" lon="8.864546">
        <ele>5.751853</ele>
        <time>2026-03-20T11:55:51.358Z</time>
      </trkpt>
      <trkpt lat="53.090600" lon="8.865103">
        <ele>5.800328</ele>
        <time>2026-03-20T11:55:59.533Z</time>
      </trkpt>
      <trkpt lat="53.090618" lon="8.865200">
        <ele>5.808765</ele>
        <time>2026-03-20T11:56:01.064Z</time>
      </trkpt>
      <trkpt lat="53.090685" lon="8.865569">
        <ele>5.840801</ele>
        <time>2026-03-20T11:56:06.594Z</time>
      </trkpt>
      <trkpt lat="53.090911" lon="8.866829">
        <ele>5.946997</ele>
        <time>2026-03-20T11:56:25.953Z</time>
      </trkpt>
      <trkpt lat="53.091014" lon="8.867405">
        <ele>5.867153</ele>
        <time>2026-03-20T11:56:34.520Z</time>
      </trkpt>
      <trkpt lat="53.091021" lon="8.867446">
        <ele>5.861490</ele>
        <time>2026-03-20T11:56:35.171Z</time>
      </trkpt>
      <trkpt lat="53.091030" lon="8.867496">
        <ele>5.854556</ele>
        <time>2026-03-20T11:56:35.947Z</time>
      </trkpt>
      <trkpt lat="53.091112" lon="8.867988">
        <ele>5.786721</ele>
        <time>2026-03-20T11:56:43.100Z</time>
      </trkpt>
      <trkpt lat="53.091153" lon="8.868233">
        <ele>5.752932</ele>
        <time>2026-03-20T11:56:46.445Z</time>
      </trkpt>
      <trkpt lat="53.091274" lon="8.869130">
        <ele>5.630794</ele>
        <time>2026-03-20T11:56:58.012Z</time>
      </trkpt>
      <trkpt lat="53.091281" lon="8.869653">
        <ele>5.561295</ele>
        <time>2026-03-20T11:57:04.786Z</time>
      </trkpt>
      <trkpt lat="53.091279" lon="8.869780">
        <ele>5.556261</ele>
        <time>2026-03-20T11:57:06.442Z</time>
      </trkpt>
      <trkpt lat="53.091279" lon="8.869871">
        <ele>5.565933</ele>
        <time>2026-03-20T11:57:07.589Z</time>
      </trkpt>
      <trkpt lat="53.091272" lon="8.870398">
        <ele>5.621960</ele>
        <time>2026-03-20T11:57:14.434Z</time>
      </trkpt>
      <trkpt lat="53.091273" lon="8.870622">
        <ele>5.645769</ele>
        <time>2026-03-20T11:57:17.435Z</time>
      </trkpt>
      <trkpt lat="53.091275" lon="8.870748">
        <ele>5.659166</ele>
        <time>2026-03-20T11:57:19.186Z</time>
      </trkpt>
      <trkpt lat="53.091286" lon="8.870929">
        <ele>5.678503</ele>
        <time>2026-03-20T11:57:21.700Z</time>
      </trkpt>
      <trkpt lat="53.091327" lon="8.871447">
        <ele>5.734036</ele>
        <time>2026-03-20T11:57:29.370Z</time>
      </trkpt>
      <trkpt lat="53.091351" lon="8.871581">
        <ele>5.748898</ele>
        <time>2026-03-20T11:57:31.516Z</time>
      </trkpt>
      <trkpt lat="53.091421" lon="8.871754">
        <ele>5.771070</ele>
        <time>2026-03-20T11:57:34.769Z</time>
      </trkpt>
      <trkpt lat="53.091521" lon="8.871850">
        <ele>5.791499</ele>
        <time>2026-03-20T11:57:37.792Z</time>
      </trkpt>
      <trkpt lat="53.091456" lon="8.872067">
        <ele>5.817273</ele>
        <time>2026-03-20T11:57:41.569Z</time>
      </trkpt>
      <trkpt lat="53.091411" lon="8.872327">
        <ele>5.846033</ele>
        <time>2026-03-20T11:57:45.863Z</time>
      </trkpt>
      <trkpt lat="53.091362" lon="8.872826">
        <ele>5.865763</ele>
        <time>2026-03-20T11:57:53.208Z</time>
      </trkpt>
      <trkpt lat="53.091352" lon="8.872921">
        <ele>5.864562</ele>
        <time>2026-03-20T11:57:54.565Z</time>
      </trkpt>
      <trkpt lat="53.091309" lon="8.873264">
        <ele>5.860197</ele>
        <time>2026-03-20T11:57:59.465Z</time>
      </trkpt>
      <trkpt lat="53.091267" lon="8.873763">
        <ele>5.853920</ele>
        <time>2026-03-20T11:58:06.449Z</time>
      </trkpt>
      <trkpt lat="53.091236" lon="8.874380">
        <ele>5.846207</ele>
        <time>2026-03-20T11:58:14.701Z</time>
      </trkpt>
      <trkpt lat="53.091223" lon="8.874688">
        <ele>5.842361</ele>
        <time>2026-03-20T11:58:18.629Z</time>
      </trkpt>
      <trkpt lat="53.091208" lon="8.875421">
        <ele>5.833224</ele>
        <time>2026-03-20T11:58:27.670Z</time>
      </trkpt>
      <trkpt lat="53.091201" lon="8.876481">
        <ele>5.637850</ele>
        <time>2026-03-20T11:58:40.611Z</time>
      </trkpt>
      <trkpt lat="53.091169" lon="8.876863">
        <ele>5.560123</ele>
        <time>2026-03-20T11:58:45.411Z</time>
      </trkpt>
      <trkpt lat="53.091089" lon="8.877386">
        <ele>5.451361</ele>
        <time>2026-03-20T11:58:52.183Z</time>
      </trkpt>
      <trkpt lat="53.091068" lon="8.877517">
        <ele>5.424037</ele>
        <time>2026-03-20T11:58:53.896Z</time>
      </trkpt>
      <trkpt lat="53.091011" lon="8.877871">
        <ele>5.350178</ele>
        <time>2026-03-20T11:58:58.568Z</time>
      </trkpt>
      <trkpt lat="53.090926" lon="8.878391">
        <ele>5.241572</ele>
        <time>2026-03-20T11:59:05.530Z</time>
      </trkpt>
      <trkpt lat="53.090670" lon="8.879914">
        <ele>5.230593</ele>
        <time>2026-03-20T11:59:26.668Z</time>
      </trkpt>
      <trkpt lat="53.090644" lon="8.880075">
        <ele>5.230829</ele>
        <time>2026-03-20T11:59:28.904Z</time>
      </trkpt>
      <trkpt lat="53.090486" lon="8.881040">
        <ele>5.232240</ele>
        <time>2026-03-20T11:59:42.366Z</time>
      </trkpt>
      <trkpt lat="53.090465" lon="8.881174">
        <ele>5.232436</ele>
        <time>2026-03-20T11:59:44.249Z</time>
      </trkpt>
      <trkpt lat="53.090445" lon="8.881308">
        <ele>5.232631</ele>
        <time>2026-03-20T11:59:46.145Z</time>
      </trkpt>
      <trkpt lat="53.090430" lon="8.881511">
        <ele>5.240311</ele>
        <time>2026-03-20T11:59:48.920Z</time>
      </trkpt>
      <trkpt lat="53.090424" lon="8.881715">
        <ele>5.249508</ele>
        <time>2026-03-20T11:59:51.709Z</time>
      </trkpt>
      <trkpt lat="53.090426" lon="8.882005">
        <ele>5.262567</ele>
        <time>2026-03-20T11:59:55.629Z</time>
      </trkpt>
      <trkpt lat="53.090427" lon="8.882021">
        <ele>5.263291</ele>
        <time>2026-03-20T11:59:55.844Z</time>
      </trkpt>
      <trkpt lat="53.090430" lon="8.882395">
        <ele>5.280133</ele>
        <time>2026-03-20T12:00:00.834Z</time>
      </trkpt>
      <trkpt lat="53.090432" lon="8.882583">
        <ele>5.288600</ele>
        <time>2026-03-20T12:00:03.361Z</time>
      </trkpt>
      <trkpt lat="53.090439" lon="8.883091">
        <ele>5.311480</ele>
        <time>2026-03-20T12:00:10.206Z</time>
      </trkpt>
      <trkpt lat="53.090443" lon="8.883536">
        <ele>5.331520</ele>
        <time>2026-03-20T12:00:16.289Z</time>
      </trkpt>
      <trkpt lat="53.090449" lon="8.883931">
        <ele>5.349312</ele>
        <time>2026-03-20T12:00:21.750Z</time>
      </trkpt>
      <trkpt lat="53.090460" lon="8.884169">
        <ele>5.360060</ele>
        <time>2026-03-20T12:00:25.045Z</time>
      </trkpt>
      <trkpt lat="53.090463" lon="8.884229">
        <ele>5.362771</ele>
        <time>2026-03-20T12:00:25.879Z</time>
      </trkpt>
      <trkpt lat="53.090472" lon="8.884883">
        <ele>5.329141</ele>
        <time>2026-03-20T12:00:34.774Z</time>
      </trkpt>
      <trkpt lat="53.090477" lon="8.885542">
        <ele>5.282988</ele>
        <time>2026-03-20T12:00:43.336Z</time>
      </trkpt>
      <trkpt lat="53.090481" lon="8.886088">
        <ele>5.244749</ele>
        <time>2026-03-20T12:00:50.377Z</time>
      </trkpt>
      <trkpt lat="53.090482" lon="8.886442">
        <ele>5.219959</ele>
        <time>2026-03-20T12:00:54.981Z</time>
      </trkpt>
      <trkpt lat="53.090482" lon="8.887174">
        <ele>5.168697</ele>
        <time>2026-03-20T12:01:04.428Z</time>
      </trkpt>
      <trkpt lat="53.090482" lon="8.887239">
        <ele>5.164145</ele>
        <time>2026-03-20T12:01:05.254Z</time>
      </trkpt>
      <trkpt lat="53.090483" lon="8.887822">
        <ele>5.099008</ele>
        <time>2026-03-20T12:01:12.653Z</time>
      </trkpt>
      <trkpt lat="53.090483" lon="8.888352">
        <ele>5.035728</ele>
        <time>2026-03-20T12:01:19.403Z</time>
      </trkpt>
      <trkpt lat="53.090483" lon="8.888776">
        <ele>4.985104</ele>
        <time>2026-03-20T12:01:24.896Z</time>
      </trkpt>
      <trkpt lat="53.090481" lon="8.888849">
        <ele>4.976379</ele>
        <time>2026-03-20T12:01:25.853Z</time>
      </trkpt>
      <trkpt lat="53.090413" lon="8.889140">
        <ele>4.939097</ele>
        <time>2026-03-20T12:01:29.975Z</time>
      </trkpt>
      <trkpt lat="53.090297" lon="8.889285">
        <ele>4.910260</ele>
        <time>2026-03-20T12:01:33.194Z</time>
      </trkpt>
      <trkpt lat="53.089787" lon="8.889561">
        <ele>4.803645</ele>
        <time>2026-03-20T12:01:44.884Z</time>
      </trkpt>
      <trkpt lat="53.089543" lon="8.889712">
        <ele>4.762434</ele>
        <time>2026-03-20T12:01:50.426Z</time>
      </trkpt>
      <trkpt lat="53.089398" lon="8.889902">
        <ele>4.733753</ele>
        <time>2026-03-20T12:01:54.352Z</time>
      </trkpt>
      <trkpt lat="53.089265" lon="8.890403">
        <ele>4.682619</ele>
        <time>2026-03-20T12:02:01.401Z</time>
      </trkpt>
      <trkpt lat="53.089206" lon="8.890758">
        <ele>4.648233</ele>
        <time>2026-03-20T12:02:06.111Z</time>
      </trkpt>
      <trkpt lat="53.089182" lon="8.891109">
        <ele>4.615255</ele>
        <time>2026-03-20T12:02:10.604Z</time>
      </trkpt>
      <trkpt lat="53.089227" lon="8.893115">
        <ele>4.611936</ele>
        <time>2026-03-20T12:02:37.349Z</time>
      </trkpt>
      <trkpt lat="53.089280" lon="8.894877">
        <ele>4.774021</ele>
        <time>2026-03-20T12:03:02.517Z</time>
      </trkpt>
      <trkpt lat="53.089283" lon="8.895369">
        <ele>4.783155</ele>
        <time>2026-03-20T12:03:08.950Z</time>
      </trkpt>
      <trkpt lat="53.089283" lon="8.895550">
        <ele>4.774194</ele>
        <time>2026-03-20T12:03:11.396Z</time>
      </trkpt>
      <trkpt lat="53.089283" lon="8.895683">
        <ele>4.767610</ele>
        <time>2026-03-20T12:03:13.208Z</time>
      </trkpt>
      <trkpt lat="53.089278" lon="8.897009">
        <ele>4.701964</ele>
        <time>2026-03-20T12:03:30.480Z</time>
      </trkpt>
      <trkpt lat="53.089237" lon="8.899233">
        <ele>4.402647</ele>
        <time>2026-03-20T12:03:59.515Z</time>
      </trkpt>
      <trkpt lat="53.089244" lon="8.900177">
        <ele>4.197212</ele>
        <time>2026-03-20T12:04:11.448Z</time>
      </trkpt>
      <trkpt lat="53.089297" lon="8.900553">
        <ele>4.113169</ele>
        <time>2026-03-20T12:04:16.215Z</time>
      </trkpt>
      <trkpt lat="53.089403" lon="8.901048">
        <ele>3.998812</ele>
        <time>2026-03-20T12:04:22.584Z</time>
      </trkpt>
      <trkpt lat="53.089578" lon="8.901703">
        <ele>3.761207</ele>
        <time>2026-03-20T12:04:31.088Z</time>
      </trkpt>
      <trkpt lat="53.089621" lon="8.901871">
        <ele>3.700273</ele>
        <time>2026-03-20T12:04:33.278Z</time>
      </trkpt>
      <trkpt lat="53.089717" lon="8.902238">
        <ele>3.566707</ele>
        <time>2026-03-20T12:04:38.023Z</time>
      </trkpt>
      <trkpt lat="53.089783" lon="8.902493">
        <ele>3.474057</ele>
        <time>2026-03-20T12:04:41.310Z</time>
      </trkpt>
      <trkpt lat="53.089849" lon="8.902745">
        <ele>3.382326</ele>
        <time>2026-03-20T12:04:44.574Z</time>
      </trkpt>
      <trkpt lat="53.089913" lon="8.902990">
        <ele>3.293180</ele>
        <time>2026-03-20T12:04:47.819Z</time>
      </trkpt>
      <trkpt lat="53.089981" lon="8.903251">
        <ele>3.198252</ele>
        <time>2026-03-20T12:04:51.311Z</time>
      </trkpt>
      <trkpt lat="53.090046" lon="8.903503">
        <ele>3.106742</ele>
        <time>2026-03-20T12:04:54.782Z</time>
      </trkpt>
      <trkpt lat="53.090114" lon="8.903763">
        <ele>3.012120</ele>
        <time>2026-03-20T12:04:58.442Z</time>
      </trkpt>
      <trkpt lat="53.090155" lon="8.903920">
        <ele>3.022556</ele>
        <time>2026-03-20T12:05:00.680Z</time>
      </trkpt>
      <trkpt lat="53.090254" lon="8.904303">
        <ele>3.109814</ele>
        <time>2026-03-20T12:05:06.293Z</time>
      </trkpt>
      <trkpt lat="53.090390" lon="8.904825">
        <ele>3.228889</ele>
        <time>2026-03-20T12:05:14.102Z</time>
      </trkpt>
      <trkpt lat="53.090405" lon="8.904882">
        <ele>3.241912</ele>
        <time>2026-03-20T12:05:14.976Z</time>
      </trkpt>
      <trkpt lat="53.090591" lon="8.905598">
        <ele>3.405165</ele>
        <time>2026-03-20T12:05:26.129Z</time>
      </trkpt>
      <trkpt lat="53.090666" lon="8.905873">
        <ele>3.468369</ele>
        <time>2026-03-20T12:05:30.670Z</time>
      </trkpt>
      <trkpt lat="53.090675" lon="8.905906">
        <ele>3.475954</ele>
        <time>2026-03-20T12:05:31.195Z</time>
      </trkpt>
      <trkpt lat="53.090737" lon="8.906147">
        <ele>3.530819</ele>
        <time>2026-03-20T12:05:35.240Z</time>
      </trkpt>
      <trkpt lat="53.090805" lon="8.906412">
        <ele>3.591125</ele>
        <time>2026-03-20T12:05:39.692Z</time>
      </trkpt>
      <trkpt lat="53.090902" lon="8.906791">
        <ele>3.670808</ele>
        <time>2026-03-20T12:05:46.056Z</time>
      </trkpt>
      <trkpt lat="53.090932" lon="8.906904">
        <ele>3.693540</ele>
        <time>2026-03-20T12:05:47.909Z</time>
      </trkpt>
      <trkpt lat="53.090954" lon="8.906991">
        <ele>3.710909</ele>
        <time>2026-03-20T12:05:49.338Z</time>
      </trkpt>
      <trkpt lat="53.091028" lon="8.907279">
        <ele>3.768544</ele>
        <time>2026-03-20T12:05:53.990Z</time>
      </trkpt>
      <trkpt lat="53.091068" lon="8.907436">
        <ele>3.799923</ele>
        <time>2026-03-20T12:05:56.450Z</time>
      </trkpt>
      <trkpt lat="53.091125" lon="8.907656">
        <ele>3.844007</ele>
        <time>2026-03-20T12:05:59.852Z</time>
      </trkpt>
      <trkpt lat="53.091208" lon="8.907980">
        <ele>3.908817</ele>
        <time>2026-03-20T12:06:04.862Z</time>
      </trkpt>
      <trkpt lat="53.091276" lon="8.908242">
        <ele>3.961332</ele>
        <time>2026-03-20T12:06:08.893Z</time>
      </trkpt>
      <trkpt lat="53.091332" lon="8.908460">
        <ele>4.004957</ele>
        <time>2026-03-20T12:06:12.170Z</time>
      </trkpt>
      <trkpt lat="53.091345" lon="8.908496">
        <ele>4.012686</ele>
        <time>2026-03-20T12:06:12.749Z</time>
      </trkpt>
      <trkpt lat="53.091428" lon="8.908699">
        <ele>4.057871</ele>
        <time>2026-03-20T12:06:16.077Z</time>
      </trkpt>
      <trkpt lat="53.091494" lon="8.908827">
        <ele>4.088911</ele>
        <time>2026-03-20T12:06:18.335Z</time>
      </trkpt>
      <trkpt lat="53.091583" lon="8.908978">
        <ele>4.127839</ele>
        <time>2026-03-20T12:06:21.097Z</time>
      </trkpt>
      <trkpt lat="53.091814" lon="8.909245">
        <ele>4.148609</ele>
        <time>2026-03-20T12:06:27.207Z</time>
      </trkpt>
      <trkpt lat="53.091997" lon="8.909362">
        <ele>4.109678</ele>
        <time>2026-03-20T12:06:31.418Z</time>
      </trkpt>
      <trkpt lat="53.092180" lon="8.909539">
        <ele>4.067647</ele>
        <time>2026-03-20T12:06:35.891Z</time>
      </trkpt>
      <trkpt lat="53.092233" lon="8.909509">
        <ele>4.056529</ele>
        <time>2026-03-20T12:06:37.143Z</time>
      </trkpt>
      <trkpt lat="53.092432" lon="8.909618">
        <ele>4.014924</ele>
        <time>2026-03-20T12:06:41.716Z</time>
      </trkpt>
      <trkpt lat="53.092585" lon="8.909719">
        <ele>3.982237</ele>
        <time>2026-03-20T12:06:45.300Z</time>
      </trkpt>
      <trkpt lat="53.092700" lon="8.909789">
        <ele>3.957919</ele>
        <time>2026-03-20T12:06:47.953Z</time>
      </trkpt>
      <trkpt lat="53.092813" lon="8.909856">
        <ele>3.934097</ele>
        <time>2026-03-20T12:06:50.556Z</time>
      </trkpt>
      <trkpt lat="53.093123" lon="8.910131">
        <ele>3.864339</ele>
        <time>2026-03-20T12:06:58.249Z</time>
      </trkpt>
      <trkpt lat="53.093136" lon="8.910190">
        <ele>3.856843</ele>
        <time>2026-03-20T12:06:59.095Z</time>
      </trkpt>
      <trkpt lat="53.093140" lon="8.910210">
        <ele>3.854329</ele>
        <time>2026-03-20T12:06:59.396Z</time>
      </trkpt>
      <trkpt lat="53.093149" lon="8.910249">
        <ele>3.849346</ele>
        <time>2026-03-20T12:06:59.972Z</time>
      </trkpt>
      <trkpt lat="53.093308" lon="8.910983">
        <ele>3.921309</ele>
        <time>2026-03-20T12:07:11.098Z</time>
      </trkpt>
      <trkpt lat="53.093335" lon="8.911108">
        <ele>3.948454</ele>
        <time>2026-03-20T12:07:13.043Z</time>
      </trkpt>
      <trkpt lat="53.093389" lon="8.911395">
        <ele>4.009910</ele>
        <time>2026-03-20T12:07:17.474Z</time>
      </trkpt>
      <trkpt lat="53.093395" lon="8.911429">
        <ele>4.017151</ele>
        <time>2026-03-20T12:07:17.995Z</time>
      </trkpt>
      <trkpt lat="53.093414" lon="8.911533">
        <ele>4.039364</ele>
        <time>2026-03-20T12:07:19.587Z</time>
      </trkpt>
      <trkpt lat="53.093607" lon="8.912431">
        <ele>4.234257</ele>
        <time>2026-03-20T12:07:33.600Z</time>
      </trkpt>
      <trkpt lat="53.093687" lon="8.912740">
        <ele>4.303015</ele>
        <time>2026-03-20T12:07:38.774Z</time>
      </trkpt>
      <trkpt lat="53.093756" lon="8.913006">
        <ele>4.362223</ele>
        <time>2026-03-20T12:07:43.346Z</time>
      </trkpt>
      <trkpt lat="53.093806" lon="8.913202">
        <ele>4.405737</ele>
        <time>2026-03-20T12:07:46.722Z</time>
      </trkpt>
      <trkpt lat="53.093978" lon="8.913866">
        <ele>4.524579</ele>
        <time>2026-03-20T12:07:57.827Z</time>
      </trkpt>
      <trkpt lat="53.094189" lon="8.914681">
        <ele>4.663757</ele>
        <time>2026-03-20T12:08:10.643Z</time>
      </trkpt>
      <trkpt lat="53.093916" lon="8.915224">
        <ele>4.774812</ele>
        <time>2026-03-20T12:08:20.379Z</time>
      </trkpt>
      <trkpt lat="53.093733" lon="8.915598">
        <ele>4.850467</ele>
        <time>2026-03-20T12:08:27.170Z</time>
      </trkpt>
      <trkpt lat="53.093706" lon="8.915654">
        <ele>4.861729</ele>
        <time>2026-03-20T12:08:28.188Z</time>
      </trkpt>
      <trkpt lat="53.093565" lon="8.915946">
        <ele>4.884337</ele>
        <time>2026-03-20T12:08:33.222Z</time>
      </trkpt>
      <trkpt lat="53.093194" lon="8.916719">
        <ele>4.780428</ele>
        <time>2026-03-20T12:08:45.806Z</time>
      </trkpt>
      <trkpt lat="53.093235" lon="8.916820">
        <ele>4.767626</ele>
        <time>2026-03-20T12:08:47.439Z</time>
      </trkpt>
      <trkpt lat="53.093315" lon="8.917033">
        <ele>4.741245</ele>
        <time>2026-03-20T12:08:50.801Z</time>
      </trkpt>
      <trkpt lat="53.093405" lon="8.917380">
        <ele>4.701554</ele>
        <time>2026-03-20T12:08:57.194Z</time>
      </trkpt>
      <trkpt lat="53.093597" lon="8.918124">
        <ele>4.616521</ele>
        <time>2026-03-20T12:09:11.088Z</time>
      </trkpt>
      <trkpt lat="53.093668" lon="8.918398">
        <ele>4.585185</ele>
        <time>2026-03-20T12:09:16.252Z</time>
      </trkpt>
      <trkpt lat="53.093736" lon="8.918661">
        <ele>4.566764</ele>
        <time>2026-03-20T12:09:21.151Z</time>
      </trkpt>
      <trkpt lat="53.093806" lon="8.918933">
        <ele>4.548083</ele>
        <time>2026-03-20T12:09:26.201Z</time>
      </trkpt>
      <trkpt lat="53.094075" lon="8.919974">
        <ele>4.476540</ele>
        <time>2026-03-20T12:09:45.855Z</time>
      </trkpt>
      <trkpt lat="53.094155" lon="8.920287">
        <ele>4.455066</ele>
        <time>2026-03-20T12:09:51.799Z</time>
      </trkpt>
      <trkpt lat="53.094239" lon="8.920610">
        <ele>4.432846</ele>
        <time>2026-03-20T12:09:57.955Z</time>
      </trkpt>
      <trkpt lat="53.094328" lon="8.920955">
        <ele>4.409142</ele>
        <time>2026-03-20T12:10:04.599Z</time>
      </trkpt>
      <trkpt lat="53.094575" lon="8.921911">
        <ele>4.395863</ele>
        <time>2026-03-20T12:10:22.638Z</time>
      </trkpt>
      <trkpt lat="53.094675" lon="8.922296">
        <ele>4.396182</ele>
        <time>2026-03-20T12:10:29.891Z</time>
      </trkpt>
      <trkpt lat="53.094720" lon="8.922472">
        <ele>4.396328</ele>
        <time>2026-03-20T12:10:33.185Z</time>
      </trkpt>
      <trkpt lat="53.094762" lon="8.922635">
        <ele>4.396463</ele>
        <time>2026-03-20T12:10:36.257Z</time>
      </trkpt>
      <trkpt lat="53.094841" lon="8.922943">
        <ele>4.396717</ele>
        <time>2026-03-20T12:10:42.086Z</time>
      </trkpt>
      <trkpt lat="53.094915" lon="8.923227">
        <ele>4.396953</ele>
        <time>2026-03-20T12:10:47.533Z</time>
      </trkpt>
      <trkpt lat="53.095098" lon="8.923936">
        <ele>4.397605</ele>
        <time>2026-03-20T12:11:01.397Z</time>
      </trkpt>
      <trkpt lat="53.095105" lon="8.923962">
        <ele>4.397690</ele>
        <time>2026-03-20T12:11:01.906Z</time>
      </trkpt>
      <trkpt lat="53.095171" lon="8.924220">
        <ele>4.398521</ele>
        <time>2026-03-20T12:11:07.026Z</time>
      </trkpt>
      <trkpt lat="53.095239" lon="8.924484">
        <ele>4.399372</ele>
        <time>2026-03-20T12:11:12.233Z</time>
      </trkpt>
      <trkpt lat="53.095406" lon="8.925128">
        <ele>4.401451</ele>
        <time>2026-03-20T12:11:24.834Z</time>
      </trkpt>
      <trkpt lat="53.095473" lon="8.925387">
        <ele>4.402286</ele>
        <time>2026-03-20T12:11:29.842Z</time>
      </trkpt>
      <trkpt lat="53.095448" lon="8.925448">
        <ele>4.402505</ele>
        <time>2026-03-20T12:11:31.140Z</time>
      </trkpt>
      <trkpt lat="53.095412" lon="8.925691">
        <ele>4.403247</ele>
        <time>2026-03-20T12:11:34.617Z</time>
      </trkpt>
      <trkpt lat="53.095359" lon="8.925827">
        <ele>4.403728</ele>
        <time>2026-03-20T12:11:36.862Z</time>
      </trkpt>
      <trkpt lat="53.094985" lon="8.926269">
        <ele>4.405991</ele>
        <time>2026-03-20T12:11:47.147Z</time>
      </trkpt>
      <trkpt lat="53.094951" lon="8.926308">
        <ele>4.406195</ele>
        <time>2026-03-20T12:11:48.060Z</time>
      </trkpt>
      <trkpt lat="53.094916" lon="8.926336">
        <ele>4.406386</ele>
        <time>2026-03-20T12:11:48.910Z</time>
      </trkpt>
      <trkpt lat="53.094649" lon="8.926543">
        <ele>4.358475</ele>
        <time>2026-03-20T12:11:55.321Z</time>
      </trkpt>
      <trkpt lat="53.094074" lon="8.926967">
        <ele>4.255604</ele>
        <time>2026-03-20T12:12:09.217Z</time>
      </trkpt>
      <trkpt lat="53.094159" lon="8.927109">
        <ele>4.235909</ele>
        <time>2026-03-20T12:12:11.945Z</time>
      </trkpt>
      <trkpt lat="53.094263" lon="8.927445">
        <ele>4.198776</ele>
        <time>2026-03-20T12:12:17.091Z</time>
      </trkpt>
      <trkpt lat="53.094323" lon="8.927662">
        <ele>4.175308</ele>
        <time>2026-03-20T12:12:20.369Z</time>
      </trkpt>
      <trkpt lat="53.094544" lon="8.928452">
        <ele>4.136916</ele>
        <time>2026-03-20T12:12:32.471Z</time>
      </trkpt>
      <trkpt lat="53.094733" lon="8.929132">
        <ele>4.218015</ele>
        <time>2026-03-20T12:12:43.149Z</time>
      </trkpt>
      <trkpt lat="53.094851" lon="8.929376">
        <ele>4.251923</ele>
        <time>2026-03-20T12:12:47.663Z</time>
      </trkpt>
      <trkpt lat="53.094924" lon="8.929529">
        <ele>4.273074</ele>
        <time>2026-03-20T12:12:50.508Z</time>
      </trkpt>
      <trkpt lat="53.094952" lon="8.929585">
        <ele>4.280960</ele>
        <time>2026-03-20T12:12:51.544Z</time>
      </trkpt>
      <trkpt lat="53.095026" lon="8.929739">
        <ele>4.302308</ele>
        <time>2026-03-20T12:12:54.391Z</time>
      </trkpt>
      <trkpt lat="53.095078" lon="8.929848">
        <ele>4.317375</ele>
        <time>2026-03-20T12:12:56.367Z</time>
      </trkpt>
      <trkpt lat="53.095253" lon="8.930210">
        <ele>4.367673</ele>
        <time>2026-03-20T12:13:02.943Z</time>
      </trkpt>
      <trkpt lat="53.095235" lon="8.930234">
        <ele>4.371829</ele>
        <time>2026-03-20T12:13:03.455Z</time>
      </trkpt>
      <trkpt lat="53.095091" lon="8.930423">
        <ele>4.404875</ele>
        <time>2026-03-20T12:13:07.638Z</time>
      </trkpt>
      <trkpt lat="53.094877" lon="8.930720">
        <ele>4.477015</ele>
        <time>2026-03-20T12:13:14.124Z</time>
      </trkpt>
      <trkpt lat="53.094460" lon="8.931297">
        <ele>4.689100</ele>
        <time>2026-03-20T12:13:27.426Z</time>
      </trkpt>
      <trkpt lat="53.094110" lon="8.931769">
        <ele>4.865279</ele>
        <time>2026-03-20T12:13:38.413Z</time>
      </trkpt>
      <trkpt lat="53.093908" lon="8.932041">
        <ele>4.966899</ele>
        <time>2026-03-20T12:13:44.670Z</time>
      </trkpt>
      <trkpt lat="53.093817" lon="8.932174">
        <ele>5.014263</ele>
        <time>2026-03-20T12:13:47.565Z</time>
      </trkpt>
      <trkpt lat="53.093458" lon="8.932698">
        <ele>5.146948</ele>
        <time>2026-03-20T12:13:58.733Z</time>
      </trkpt>
      <trkpt lat="53.093355" lon="8.932837">
        <ele>5.152895</ele>
        <time>2026-03-20T12:14:01.754Z</time>
      </trkpt>
      <trkpt lat="53.093287" lon="8.932930">
        <ele>5.156841</ele>
        <time>2026-03-20T12:14:03.716Z</time>
      </trkpt>
      <trkpt lat="53.092768" lon="8.933670">
        <ele>5.187487</ele>
        <time>2026-03-20T12:14:18.668Z</time>
      </trkpt>
      <trkpt lat="53.092654" lon="8.933842">
        <ele>5.194386</ele>
        <time>2026-03-20T12:14:22.053Z</time>
      </trkpt>
      <trkpt lat="53.092616" lon="8.933899">
        <ele>5.196680</ele>
        <time>2026-03-20T12:14:23.181Z</time>
      </trkpt>
      <trkpt lat="53.091954" lon="8.934884">
        <ele>5.375185</ele>
        <time>2026-03-20T12:14:42.804Z</time>
      </trkpt>
      <trkpt lat="53.091799" lon="8.935154">
        <ele>5.473118</ele>
        <time>2026-03-20T12:14:48.015Z</time>
      </trkpt>
      <trkpt lat="53.091440" lon="8.935924">
        <ele>5.728706</ele>
        <time>2026-03-20T12:15:02.654Z</time>
      </trkpt>
      <trkpt lat="53.091198" lon="8.936562">
        <ele>5.926559</ele>
        <time>2026-03-20T12:15:14.123Z</time>
      </trkpt>
      <trkpt lat="53.091135" lon="8.936737">
        <ele>5.980056</ele>
        <time>2026-03-20T12:15:17.155Z</time>
      </trkpt>
      <trkpt lat="53.090946" lon="8.937253">
        <ele>6.043700</ele>
        <time>2026-03-20T12:15:26.014Z</time>
      </trkpt>
      <trkpt lat="53.090896" lon="8.937370">
        <ele>6.054431</ele>
        <time>2026-03-20T12:15:28.080Z</time>
      </trkpt>
      <trkpt lat="53.090427" lon="8.938096">
        <ele>6.134114</ele>
        <time>2026-03-20T12:15:42.873Z</time>
      </trkpt>
      <trkpt lat="53.090383" lon="8.938162">
        <ele>6.141484</ele>
        <time>2026-03-20T12:15:44.180Z</time>
      </trkpt>
      <trkpt lat="53.089854" lon="8.938950">
        <ele>6.229645</ele>
        <time>2026-03-20T12:15:59.142Z</time>
      </trkpt>
      <trkpt lat="53.089336" lon="8.939764">
        <ele>6.162141</ele>
        <time>2026-03-20T12:16:14.631Z</time>
      </trkpt>
      <trkpt lat="53.088893" lon="8.940308">
        <ele>6.109973</ele>
        <time>2026-03-20T12:16:26.969Z</time>
      </trkpt>
      <trkpt lat="53.088680" lon="8.940557">
        <ele>6.085307</ele>
        <time>2026-03-20T12:16:32.817Z</time>
      </trkpt>
      <trkpt lat="53.088407" lon="8.940839">
        <ele>6.041239</ele>
        <time>2026-03-20T12:16:39.915Z</time>
      </trkpt>
      <trkpt lat="53.088166" lon="8.941102">
        <ele>5.929193</ele>
        <time>2026-03-20T12:16:46.132Z</time>
      </trkpt>
      <trkpt lat="53.087946" lon="8.941372">
        <ele>5.822919</ele>
        <time>2026-03-20T12:16:51.832Z</time>
      </trkpt>
      <trkpt lat="53.087721" lon="8.941646">
        <ele>5.714526</ele>
        <time>2026-03-20T12:16:57.566Z</time>
      </trkpt>
      <trkpt lat="53.086866" lon="8.942941">
        <ele>5.292585</ele>
        <time>2026-03-20T12:17:21.276Z</time>
      </trkpt>
      <trkpt lat="53.086066" lon="8.944539">
        <ele>4.947727</ele>
        <time>2026-03-20T12:17:47.868Z</time>
      </trkpt>
      <trkpt lat="53.085821" lon="8.944973">
        <ele>4.856167</ele>
        <time>2026-03-20T12:17:55.612Z</time>
      </trkpt>
      <trkpt lat="53.085739" lon="8.945476">
        <ele>4.812737</ele>
        <time>2026-03-20T12:18:02.431Z</time>
      </trkpt>
      <trkpt lat="53.085705" lon="8.945901">
        <ele>4.777010</ele>
        <time>2026-03-20T12:18:08.043Z</time>
      </trkpt>
      <trkpt lat="53.085519" lon="8.948176">
        <ele>4.562005</ele>
        <time>2026-03-20T12:18:38.078Z</time>
      </trkpt>
      <trkpt lat="53.085476" lon="8.948891">
        <ele>4.451819</ele>
        <time>2026-03-20T12:18:47.201Z</time>
      </trkpt>
      <trkpt lat="53.085465" lon="8.949660">
        <ele>4.333868</ele>
        <time>2026-03-20T12:18:56.767Z</time>
      </trkpt>
      <trkpt lat="53.085465" lon="8.949807">
        <ele>4.311327</ele>
        <time>2026-03-20T12:18:58.588Z</time>
      </trkpt>
      <trkpt lat="53.084731" lon="8.949608">
        <ele>4.158628</ele>
        <time>2026-03-20T12:19:14.580Z</time>
      </trkpt>
      <trkpt lat="53.084350" lon="8.949516">
        <ele>4.170281</ele>
        <time>2026-03-20T12:19:23.030Z</time>
      </trkpt>
      <trkpt lat="53.084144" lon="8.949442">
        <ele>4.176660</ele>
        <time>2026-03-20T12:19:27.725Z</time>
      </trkpt>
      <trkpt lat="53.083904" lon="8.949275">
        <ele>4.184534</ele>
        <time>2026-03-20T12:19:33.666Z</time>
      </trkpt>
      <trkpt lat="53.083523" lon="8.949466">
        <ele>4.196578</ele>
        <time>2026-03-20T12:19:42.976Z</time>
      </trkpt>
      <trkpt lat="53.082704" lon="8.949396">
        <ele>4.131881</ele>
        <time>2026-03-20T12:20:01.443Z</time>
      </trkpt>
      <trkpt lat="53.081633" lon="8.949248">
        <ele>3.927043</ele>
        <time>2026-03-20T12:20:23.925Z</time>
      </trkpt>
      <trkpt lat="53.081600" lon="8.949244">
        <ele>3.920736</ele>
        <time>2026-03-20T12:20:24.619Z</time>
      </trkpt>
      <trkpt lat="53.080462" lon="8.949212">
        <ele>3.756344</ele>
        <time>2026-03-20T12:20:49.155Z</time>
      </trkpt>
      <trkpt lat="53.079889" lon="8.949205">
        <ele>3.682441</ele>
        <time>2026-03-20T12:21:01.689Z</time>
      </trkpt>
      <trkpt lat="53.079720" lon="8.949269">
        <ele>3.660088</ele>
        <time>2026-03-20T12:21:05.474Z</time>
      </trkpt>
      <trkpt lat="53.079594" lon="8.949413">
        <ele>3.640376</ele>
        <time>2026-03-20T12:21:08.820Z</time>
      </trkpt>
      <trkpt lat="53.079512" lon="8.949648">
        <ele>3.670023</ele>
        <time>2026-03-20T12:21:12.468Z</time>
      </trkpt>
      <trkpt lat="53.079399" lon="8.949850">
        <ele>3.720881</ele>
        <time>2026-03-20T12:21:16.274Z</time>
      </trkpt>
      <trkpt lat="53.079304" lon="8.949952">
        <ele>3.755555</ele>
        <time>2026-03-20T12:21:18.927Z</time>
      </trkpt>
      <trkpt lat="53.078950" lon="8.950162">
        <ele>3.870823</ele>
        <time>2026-03-20T12:21:27.738Z</time>
      </trkpt>
      <trkpt lat="53.078840" lon="8.950301">
        <ele>3.913182</ele>
        <time>2026-03-20T12:21:30.987Z</time>
      </trkpt>
      <trkpt lat="53.078752" lon="8.950487">
        <ele>3.956807</ele>
        <time>2026-03-20T12:21:34.281Z</time>
      </trkpt>
      <trkpt lat="53.078709" lon="8.950670">
        <ele>3.993013</ele>
        <time>2026-03-20T12:21:37.000Z</time>
      </trkpt>
      <trkpt lat="53.078622" lon="8.951093">
        <ele>4.075394</ele>
        <time>2026-03-20T12:21:43.469Z</time>
      </trkpt>
      <trkpt lat="53.078246" lon="8.952494">
        <ele>4.241656</ele>
        <time>2026-03-20T12:22:06.209Z</time>
      </trkpt>
      <trkpt lat="53.078174" lon="8.953079">
        <ele>4.277226</ele>
        <time>2026-03-20T12:22:14.377Z</time>
      </trkpt>
      <trkpt lat="53.078090" lon="8.953931">
        <ele>4.328656</ele>
        <time>2026-03-20T12:22:25.616Z</time>
      </trkpt>
      <trkpt lat="53.078052" lon="8.954085">
        <ele>4.338573</ele>
        <time>2026-03-20T12:22:27.695Z</time>
      </trkpt>
      <trkpt lat="53.077770" lon="8.954781">
        <ele>4.440822</ele>
        <time>2026-03-20T12:22:38.116Z</time>
      </trkpt>
      <trkpt lat="53.077576" lon="8.955202">
        <ele>4.540617</ele>
        <time>2026-03-20T12:22:45.002Z</time>
      </trkpt>
      <trkpt lat="53.077464" lon="8.955446">
        <ele>4.598373</ele>
        <time>2026-03-20T12:22:49.136Z</time>
      </trkpt>
      <trkpt lat="53.077392" lon="8.955599">
        <ele>4.634928</ele>
        <time>2026-03-20T12:22:51.816Z</time>
      </trkpt>
      <trkpt lat="53.077202" lon="8.955740">
        <ele>4.700058</ele>
        <time>2026-03-20T12:22:56.807Z</time>
      </trkpt>
      <trkpt lat="53.076197" lon="8.956113">
        <ele>5.047682</ele>
        <time>2026-03-20T12:23:23.246Z</time>
      </trkpt>
      <trkpt lat="53.076085" lon="8.956203">
        <ele>5.096973</ele>
        <time>2026-03-20T12:23:26.529Z</time>
      </trkpt>
      <trkpt lat="53.075731" lon="8.956879">
        <ele>5.310496</ele>
        <time>2026-03-20T12:23:40.060Z</time>
      </trkpt>
      <trkpt lat="53.075715" lon="8.956908">
        <ele>5.319871</ele>
        <time>2026-03-20T12:23:40.631Z</time>
      </trkpt>
      <trkpt lat="53.075646" lon="8.957030">
        <ele>5.359766</ele>
        <time>2026-03-20T12:23:43.038Z</time>
      </trkpt>
      <trkpt lat="53.075579" lon="8.957149">
        <ele>5.398599</ele>
        <time>2026-03-20T12:23:45.341Z</time>
      </trkpt>
      <trkpt lat="53.075376" lon="8.957512">
        <ele>5.516682</ele>
        <time>2026-03-20T12:23:52.206Z</time>
      </trkpt>
      <trkpt lat="53.075386" lon="8.957589">
        <ele>5.535439</ele>
        <time>2026-03-20T12:23:53.276Z</time>
      </trkpt>
      <trkpt lat="53.075492" lon="8.957758">
        <ele>5.593613</ele>
        <time>2026-03-20T12:23:56.589Z</time>
      </trkpt>
      <trkpt lat="53.075560" lon="8.957928">
        <ele>5.637906</ele>
        <time>2026-03-20T12:23:59.170Z</time>
      </trkpt>
      <trkpt lat="53.075084" lon="8.958882">
        <ele>5.251022</ele>
        <time>2026-03-20T12:24:25.017Z</time>
      </trkpt>
      <trkpt lat="53.075042" lon="8.959042">
        <ele>5.196549</ele>
        <time>2026-03-20T12:24:28.629Z</time>
      </trkpt>
      <trkpt lat="53.075014" lon="8.959311">
        <ele>5.111378</ele>
        <time>2026-03-20T12:24:34.311Z</time>
      </trkpt>
      <trkpt lat="53.075062" lon="8.959570">
        <ele>5.026819</ele>
        <time>2026-03-20T12:24:39.983Z</time>
      </trkpt>
      <trkpt lat="53.075301" lon="8.960094">
        <ele>4.821569</ele>
        <time>2026-03-20T12:24:53.787Z</time>
      </trkpt>
      <trkpt lat="53.075429" lon="8.960486">
        <ele>4.697712</ele>
        <time>2026-03-20T12:25:03.133Z</time>
      </trkpt>
      <trkpt lat="53.075711" lon="8.962513">
        <ele>4.463951</ele>
        <time>2026-03-20T12:25:48.769Z</time>
      </trkpt>
      <trkpt lat="53.075878" lon="8.963717">
        <ele>4.317294</ele>
        <time>2026-03-20T12:26:16.210Z</time>
      </trkpt>
      <trkpt lat="53.076100" lon="8.963671">
        <ele>4.268153</ele>
        <time>2026-03-20T12:26:24.332Z</time>
      </trkpt>
      <trkpt lat="53.076189" lon="8.963696">
        <ele>4.248327</ele>
        <time>2026-03-20T12:26:27.624Z</time>
      </trkpt>
      <trkpt lat="53.076291" lon="8.963827">
        <ele>4.220028</ele>
        <time>2026-03-20T12:26:32.276Z</time>
      </trkpt>
      <trkpt lat="53.076284" lon="8.964154">
        <ele>4.176849</ele>
        <time>2026-03-20T12:26:39.359Z</time>
      </trkpt>
      <trkpt lat="53.076203" lon="8.964374">
        <ele>4.142799</ele>
        <time>2026-03-20T12:26:44.930Z</time>
      </trkpt>
      <trkpt lat="53.076214" lon="8.964689">
        <ele>4.101161</ele>
        <time>2026-03-20T12:26:51.706Z</time>
      </trkpt>
      <trkpt lat="53.076384" lon="8.966826">
        <ele>3.889117</ele>
        <time>2026-03-20T12:27:22.547Z</time>
      </trkpt>
      <trkpt lat="53.076308" lon="8.966900">
        <ele>3.878631</ele>
        <time>2026-03-20T12:27:24.475Z</time>
      </trkpt>
      <trkpt lat="53.076266" lon="8.967049">
        <ele>3.866855</ele>
        <time>2026-03-20T12:27:26.667Z</time>
      </trkpt>
      <trkpt lat="53.076037" lon="8.967060">
        <ele>3.839571</ele>
        <time>2026-03-20T12:27:31.754Z</time>
      </trkpt>
      <trkpt lat="53.075373" lon="8.967159">
        <ele>3.760566</ele>
        <time>2026-03-20T12:27:46.510Z</time>
      </trkpt>
      <trkpt lat="53.074998" lon="8.967192">
        <ele>3.751123</ele>
        <time>2026-03-20T12:27:54.784Z</time>
      </trkpt>
      <trkpt lat="53.074946" lon="8.967200">
        <ele>3.749810</ele>
        <time>2026-03-20T12:27:55.940Z</time>
      </trkpt>
      <trkpt lat="53.074583" lon="8.967252">
        <ele>3.740649</ele>
        <time>2026-03-20T12:28:03.914Z</time>
      </trkpt>
      <trkpt lat="53.073231" lon="8.967510">
        <ele>3.792291</ele>
        <time>2026-03-20T12:28:34.236Z</time>
      </trkpt>
      <trkpt lat="53.072705" lon="8.967560">
        <ele>3.905243</ele>
        <time>2026-03-20T12:28:46.416Z</time>
      </trkpt>
      <trkpt lat="53.070591" lon="8.967897">
        <ele>4.390244</ele>
        <time>2026-03-20T12:29:36.334Z</time>
      </trkpt>
      <trkpt lat="53.069567" lon="8.968032">
        <ele>4.456086</ele>
        <time>2026-03-20T12:29:59.592Z</time>
      </trkpt>
      <trkpt lat="53.069159" lon="8.968105">
        <ele>4.386224</ele>
        <time>2026-03-20T12:30:08.378Z</time>
      </trkpt>
      <trkpt lat="53.069242" lon="8.969303">
        <ele>4.262863</ele>
        <time>2026-03-20T12:30:28.544Z</time>
      </trkpt>
      <trkpt lat="53.069342" lon="8.970734">
        <ele>4.426580</ele>
        <time>2026-03-20T12:30:53.218Z</time>
      </trkpt>
      <trkpt lat="53.069523" lon="8.973327">
        <ele>5.082934</ele>
        <time>2026-03-20T12:31:31.923Z</time>
      </trkpt>
      <trkpt lat="53.070031" lon="8.973285">
        <ele>5.443861</ele>
        <time>2026-03-20T12:31:44.994Z</time>
      </trkpt>
      <trkpt lat="53.070349" lon="8.973258">
        <ele>5.669810</ele>
        <time>2026-03-20T12:31:53.217Z</time>
      </trkpt>
      <trkpt lat="53.070534" lon="8.973243">
        <ele>5.801244</ele>
        <time>2026-03-20T12:31:57.922Z</time>
      </trkpt>
      <trkpt lat="53.070821" lon="8.973219">
        <ele>6.005159</ele>
        <time>2026-03-20T12:32:05.071Z</time>
      </trkpt>
      <trkpt lat="53.071448" lon="8.973163">
        <ele>6.135084</ele>
        <time>2026-03-20T12:32:20.310Z</time>
      </trkpt>
      <trkpt lat="53.071577" lon="8.975697">
        <ele>6.225172</ele>
        <time>2026-03-20T12:32:53.805Z</time>
      </trkpt>
      <trkpt lat="53.071881" lon="8.979579">
        <ele>5.738918</ele>
        <time>2026-03-20T12:33:43.624Z</time>
      </trkpt>
      <trkpt lat="53.071995" lon="8.981091">
        <ele>5.620575</ele>
        <time>2026-03-20T12:34:04.015Z</time>
      </trkpt>
      <trkpt lat="53.072766" lon="8.991076">
        <ele>5.983391</ele>
        <time>2026-03-20T12:36:19.843Z</time>
      </trkpt>
      <trkpt lat="53.072940" lon="8.993430">
        <ele>6.328352</ele>
        <time>2026-03-20T12:36:52.533Z</time>
      </trkpt>
      <trkpt lat="53.072994" lon="8.994531">
        <ele>6.704779</ele>
        <time>2026-03-20T12:37:08.881Z</time>
      </trkpt>
      <trkpt lat="53.071921" lon="8.994663">
        <ele>7.253376</ele>
        <time>2026-03-20T12:37:43.818Z</time>
      </trkpt>
      <trkpt lat="53.071454" lon="8.994667">
        <ele>7.337044</ele>
        <time>2026-03-20T12:37:58.022Z</time>
      </trkpt>
      <trkpt lat="53.071342" lon="8.994706">
        <ele>7.357544</ele>
        <time>2026-03-20T12:38:01.477Z</time>
      </trkpt>
      <trkpt lat="53.071263" lon="8.994818">
        <ele>7.376136</ele>
        <time>2026-03-20T12:38:04.621Z</time>
      </trkpt>
      <trkpt lat="53.071103" lon="8.995067">
        <ele>7.415380</ele>
        <time>2026-03-20T12:38:11.124Z</time>
      </trkpt>
      <trkpt lat="53.069966" lon="8.995887">
        <ele>7.573427</ele>
        <time>2026-03-20T12:38:38.182Z</time>
      </trkpt>
      <trkpt lat="53.068775" lon="8.996243">
        <ele>7.636555</ele>
        <time>2026-03-20T12:39:05.410Z</time>
      </trkpt>
      <trkpt lat="53.067829" lon="8.996496">
        <ele>7.830081</ele>
        <time>2026-03-20T12:39:27.706Z</time>
      </trkpt>
      <trkpt lat="53.065054" lon="8.997238">
        <ele>8.561261</ele>
        <time>2026-03-20T12:40:32.791Z</time>
      </trkpt>
      <trkpt lat="53.064710" lon="8.997340">
        <ele>8.775769</ele>
        <time>2026-03-20T12:40:40.846Z</time>
      </trkpt>
      <trkpt lat="53.059709" lon="8.998810">
        <ele>11.717165</ele>
        <time>2026-03-20T12:42:47.573Z</time>
      </trkpt>
      <trkpt lat="53.059553" lon="8.998903">
        <ele>11.605817</ele>
        <time>2026-03-20T12:42:51.529Z</time>
      </trkpt>
      <trkpt lat="53.058994" lon="8.999422">
        <ele>11.175683</ele>
        <time>2026-03-20T12:43:04.976Z</time>
      </trkpt>
      <trkpt lat="53.058746" lon="8.999657">
        <ele>10.983912</ele>
        <time>2026-03-20T12:43:10.560Z</time>
      </trkpt>
      <trkpt lat="53.058695" lon="8.999663">
        <ele>10.949558</ele>
        <time>2026-03-20T12:43:11.550Z</time>
      </trkpt>
      <trkpt lat="53.058580" lon="8.999670">
        <ele>10.872232</ele>
        <time>2026-03-20T12:43:13.738Z</time>
      </trkpt>
      <trkpt lat="53.058587" lon="8.999499">
        <ele>10.803016</ele>
        <time>2026-03-20T12:43:15.643Z</time>
      </trkpt>
      <trkpt lat="53.058596" lon="8.999274">
        <ele>10.711952</ele>
        <time>2026-03-20T12:43:18.128Z</time>
      </trkpt>
      <trkpt lat="53.058481" lon="8.999258">
        <ele>10.634408</ele>
        <time>2026-03-20T12:43:21.830Z</time>
      </trkpt>
      <trkpt lat="53.058451" lon="8.999200">
        <ele>10.603506</ele>
        <time>2026-03-20T12:43:22.647Z</time>
      </trkpt>
      <trkpt lat="53.058428" lon="8.999154">
        <ele>10.568589</ele>
        <time>2026-03-20T12:43:23.291Z</time>
      </trkpt>
      <trkpt lat="53.058301" lon="8.999239">
        <ele>10.364250</ele>
        <time>2026-03-20T12:43:26.590Z</time>
      </trkpt>
      <trkpt lat="53.057780" lon="8.999087">
        <ele>9.574675</ele>
        <time>2026-03-20T12:43:39.238Z</time>
      </trkpt>
      <trkpt lat="53.057388" lon="8.999047">
        <ele>8.988426</ele>
        <time>2026-03-20T12:43:48.875Z</time>
      </trkpt>
      <trkpt lat="53.057316" lon="8.999050">
        <ele>8.880916</ele>
        <time>2026-03-20T12:43:50.693Z</time>
      </trkpt>
      <trkpt lat="53.055820" lon="8.999361">
        <ele>7.488597</ele>
        <time>2026-03-20T12:44:20.039Z</time>
      </trkpt>
      <trkpt lat="53.055456" lon="8.999509">
        <ele>7.306374</ele>
        <time>2026-03-20T12:44:28.095Z</time>
      </trkpt>
      <trkpt lat="53.054637" lon="8.999945">
        <ele>6.961385</ele>
        <time>2026-03-20T12:44:47.057Z</time>
      </trkpt>
      <trkpt lat="53.053913" lon="9.000351">
        <ele>6.783543</ele>
        <time>2026-03-20T12:45:03.562Z</time>
      </trkpt>
      <trkpt lat="53.053662" lon="9.000526">
        <ele>6.720194</ele>
        <time>2026-03-20T12:45:09.255Z</time>
      </trkpt>
      <trkpt lat="53.053418" lon="9.000765">
        <ele>6.654286</ele>
        <time>2026-03-20T12:45:15.120Z</time>
      </trkpt>
      <trkpt lat="53.052948" lon="9.001337">
        <ele>6.580432</ele>
        <time>2026-03-20T12:45:27.221Z</time>
      </trkpt>
      <trkpt lat="53.051881" lon="9.002694">
        <ele>6.479371</ele>
        <time>2026-03-20T12:45:56.683Z</time>
      </trkpt>
      <trkpt lat="53.051237" lon="9.003512">
        <ele>6.881210</ele>
        <time>2026-03-20T12:46:16.755Z</time>
      </trkpt>
      <trkpt lat="53.050461" lon="9.004326">
        <ele>7.381062</ele>
        <time>2026-03-20T12:46:39.926Z</time>
      </trkpt>
      <trkpt lat="53.049482" lon="9.005285">
        <ele>7.739252</ele>
        <time>2026-03-20T12:47:14.485Z</time>
      </trkpt>
      <trkpt lat="53.049158" lon="9.005757">
        <ele>7.861707</ele>
        <time>2026-03-20T12:47:26.958Z</time>
      </trkpt>
      <trkpt lat="53.048423" lon="9.007042">
        <ele>8.273013</ele>
        <time>2026-03-20T12:47:52.133Z</time>
      </trkpt>
      <trkpt lat="53.048352" lon="9.007177">
        <ele>8.320341</ele>
        <time>2026-03-20T12:47:54.758Z</time>
      </trkpt>
      <trkpt lat="53.048346" lon="9.007270">
        <ele>8.345020</ele>
        <time>2026-03-20T12:47:56.133Z</time>
      </trkpt>
      <trkpt lat="53.047931" lon="9.007843">
        <ele>8.581744</ele>
        <time>2026-03-20T12:48:09.457Z</time>
      </trkpt>
      <trkpt lat="53.047908" lon="9.007949">
        <ele>8.611479</ele>
        <time>2026-03-20T12:48:11.139Z</time>
      </trkpt>
      <trkpt lat="53.047913" lon="9.008050">
        <ele>8.638219</ele>
        <time>2026-03-20T12:48:12.647Z</time>
      </trkpt>
      <trkpt lat="53.047742" lon="9.008087">
        <ele>8.713907</ele>
        <time>2026-03-20T12:48:16.886Z</time>
      </trkpt>
      <trkpt lat="53.047170" lon="9.008780">
        <ele>8.733125</ele>
        <time>2026-03-20T12:48:33.375Z</time>
      </trkpt>
      <trkpt lat="53.046587" lon="9.009514">
        <ele>8.706478</ele>
        <time>2026-03-20T12:48:49.241Z</time>
      </trkpt>
      <trkpt lat="53.045996" lon="9.010284">
        <ele>8.711278</ele>
        <time>2026-03-20T12:49:04.654Z</time>
      </trkpt>
      <trkpt lat="53.045855" lon="9.010457">
        <ele>8.723917</ele>
        <time>2026-03-20T12:49:08.449Z</time>
      </trkpt>
      <trkpt lat="53.045412" lon="9.011008">
        <ele>8.763820</ele>
        <time>2026-03-20T12:49:20.978Z</time>
      </trkpt>
      <trkpt lat="53.044850" lon="9.011722">
        <ele>8.814834</ele>
        <time>2026-03-20T12:49:37.449Z</time>
      </trkpt>
      <trkpt lat="53.044261" lon="9.012474">
        <ele>9.196601</ele>
        <time>2026-03-20T12:49:56.106Z</time>
      </trkpt>
      <trkpt lat="53.043228" lon="9.013785">
        <ele>9.901854</ele>
        <time>2026-03-20T12:50:27.542Z</time>
      </trkpt>
      <trkpt lat="53.043038" lon="9.013998">
        <ele>10.004047</ele>
        <time>2026-03-20T12:50:33.400Z</time>
      </trkpt>
      <trkpt lat="53.041922" lon="9.015435">
        <ele>10.621659</ele>
        <time>2026-03-20T12:51:07.524Z</time>
      </trkpt>
      <trkpt lat="53.041701" lon="9.015659">
        <ele>10.567429</ele>
        <time>2026-03-20T12:51:13.346Z</time>
      </trkpt>
      <trkpt lat="53.041137" lon="9.016155">
        <ele>10.433741</ele>
        <time>2026-03-20T12:51:27.268Z</time>
      </trkpt>
      <trkpt lat="53.040744" lon="9.016562">
        <ele>10.336731</ele>
        <time>2026-03-20T12:51:36.686Z</time>
      </trkpt>
      <trkpt lat="53.040350" lon="9.017052">
        <ele>10.216222</ele>
        <time>2026-03-20T12:51:46.665Z</time>
      </trkpt>
      <trkpt lat="53.040214" lon="9.017315">
        <ele>10.121470</ele>
        <time>2026-03-20T12:51:51.160Z</time>
      </trkpt>
      <trkpt lat="53.040017" lon="9.017695">
        <ele>9.984418</ele>
        <time>2026-03-20T12:51:57.726Z</time>
      </trkpt>
      <trkpt lat="53.039639" lon="9.018521">
        <ele>9.700879</ele>
        <time>2026-03-20T12:52:10.779Z</time>
      </trkpt>
      <trkpt lat="53.038959" lon="9.020007">
        <ele>9.181582</ele>
        <time>2026-03-20T12:52:33.495Z</time>
      </trkpt>
      <trkpt lat="53.038452" lon="9.021057">
        <ele>8.799658</ele>
        <time>2026-03-20T12:52:55.799Z</time>
      </trkpt>
      <trkpt lat="53.038140" lon="9.022452">
        <ele>8.578493</ele>
        <time>2026-03-20T12:53:20.821Z</time>
      </trkpt>
      <trkpt lat="53.038071" lon="9.024810">
        <ele>8.579953</ele>
        <time>2026-03-20T12:54:03.170Z</time>
      </trkpt>
      <trkpt lat="53.037945" lon="9.025168">
        <ele>8.649343</ele>
        <time>2026-03-20T12:54:10.381Z</time>
      </trkpt>
      <trkpt lat="53.037751" lon="9.025729">
        <ele>8.757598</ele>
        <time>2026-03-20T12:54:18.995Z</time>
      </trkpt>
      <trkpt lat="53.037452" lon="9.026334">
        <ele>8.888598</ele>
        <time>2026-03-20T12:54:29.436Z</time>
      </trkpt>
      <trkpt lat="53.036245" lon="9.027937">
        <ele>9.755436</ele>
        <time>2026-03-20T12:55:08.395Z</time>
      </trkpt>
      <trkpt lat="53.035878" lon="9.028424">
        <ele>10.111084</ele>
        <time>2026-03-20T12:55:20.630Z</time>
      </trkpt>
      <trkpt lat="53.035792" lon="9.028477">
        <ele>10.180556</ele>
        <time>2026-03-20T12:55:22.966Z</time>
      </trkpt>
      <trkpt lat="53.034006" lon="9.027666">
        <ele>11.121549</ele>
        <time>2026-03-20T12:56:08.214Z</time>
      </trkpt>
      <trkpt lat="53.033904" lon="9.027619">
        <ele>11.169721</ele>
        <time>2026-03-20T12:56:10.614Z</time>
      </trkpt>
      <trkpt lat="53.033596" lon="9.027587">
        <ele>11.336531</ele>
        <time>2026-03-20T12:56:17.564Z</time>
      </trkpt>
      <trkpt lat="53.033436" lon="9.027581">
        <ele>11.439117</ele>
        <time>2026-03-20T12:56:21.107Z</time>
      </trkpt>
      <trkpt lat="53.032993" lon="9.027703">
        <ele>11.726947</ele>
        <time>2026-03-20T12:56:30.956Z</time>
      </trkpt>
      <trkpt lat="53.032203" lon="9.027511">
        <ele>12.238715</ele>
        <time>2026-03-20T12:56:51.073Z</time>
      </trkpt>
      <trkpt lat="53.032118" lon="9.027518">
        <ele>12.293267</ele>
        <time>2026-03-20T12:56:53.529Z</time>
      </trkpt>
      <trkpt lat="53.032042" lon="9.027546">
        <ele>12.343164</ele>
        <time>2026-03-20T12:56:55.729Z</time>
      </trkpt>
      <trkpt lat="53.031868" lon="9.027744">
        <ele>12.561361</ele>
        <time>2026-03-20T12:57:01.912Z</time>
      </trkpt>
      <trkpt lat="53.031938" lon="9.028639">
        <ele>13.271563</ele>
        <time>2026-03-20T12:57:17.548Z</time>
      </trkpt>
      <trkpt lat="53.031946" lon="9.028774">
        <ele>13.378309</ele>
        <time>2026-03-20T12:57:19.883Z</time>
      </trkpt>
      <trkpt lat="53.031984" lon="9.029401">
        <ele>13.874190</ele>
        <time>2026-03-20T12:57:30.722Z</time>
      </trkpt>
      <trkpt lat="53.031320" lon="9.029364">
        <ele>14.743524</ele>
        <time>2026-03-20T12:57:48.603Z</time>
      </trkpt>
      <trkpt lat="53.030960" lon="9.029323">
        <ele>15.125372</ele>
        <time>2026-03-20T12:57:57.555Z</time>
      </trkpt>
      <trkpt lat="53.030582" lon="9.029098">
        <ele>15.548374</ele>
        <time>2026-03-20T12:58:07.340Z</time>
      </trkpt>
      <trkpt lat="53.030277" lon="9.028962">
        <ele>15.881070</ele>
        <time>2026-03-20T12:58:15.482Z</time>
      </trkpt>
      <trkpt lat="53.029820" lon="9.028987">
        <ele>16.362818</ele>
        <time>2026-03-20T12:58:28.045Z</time>
      </trkpt>
      <trkpt lat="53.029798" lon="9.028989">
        <ele>16.386032</ele>
        <time>2026-03-20T12:58:28.656Z</time>
      </trkpt>
      <trkpt lat="53.029868" lon="9.029357">
        <ele>16.630591</ele>
        <time>2026-03-20T12:58:35.236Z</time>
      </trkpt>
      <trkpt lat="53.029917" lon="9.030101">
        <ele>17.079868</ele>
        <time>2026-03-20T12:58:47.994Z</time>
      </trkpt>
      <trkpt lat="53.029919" lon="9.030190">
        <ele>17.133223</ele>
        <time>2026-03-20T12:58:49.505Z</time>
      </trkpt>
      <trkpt lat="53.029933" lon="9.030773">
        <ele>17.482762</ele>
        <time>2026-03-20T12:58:59.634Z</time>
      </trkpt>
      <trkpt lat="53.029714" lon="9.030767">
        <ele>17.700946</ele>
        <time>2026-03-20T12:59:07.049Z</time>
      </trkpt>
      <trkpt lat="53.029578" lon="9.030816">
        <ele>17.839565</ele>
        <time>2026-03-20T12:59:11.675Z</time>
      </trkpt>
      <trkpt lat="53.029325" lon="9.030982">
        <ele>18.110499</ele>
        <time>2026-03-20T12:59:20.402Z</time>
      </trkpt>
      <trkpt lat="53.029312" lon="9.031332">
        <ele>18.320578</ele>
        <time>2026-03-20T12:59:28.585Z</time>
      </trkpt>
      <trkpt lat="53.029303" lon="9.031544">
        <ele>18.440054</ele>
        <time>2026-03-20T12:59:33.426Z</time>
      </trkpt>
      <trkpt lat="53.029241" lon="9.031544">
        <ele>18.448513</ele>
        <time>2026-03-20T12:59:35.232Z</time>
      </trkpt>
      <trkpt lat="53.029181" lon="9.031500">
        <ele>18.457459</ele>
        <time>2026-03-20T12:59:36.702Z</time>
      </trkpt>
      <trkpt lat="53.028237" lon="9.031478">
        <ele>18.586263</ele>
        <time>2026-03-20T12:59:56.902Z</time>
      </trkpt>
      <trkpt lat="53.028126" lon="9.031425">
        <ele>18.602019</ele>
        <time>2026-03-20T12:59:59.299Z</time>
      </trkpt>
      <trkpt lat="53.027067" lon="9.031395">
        <ele>19.330554</ele>
        <time>2026-03-20T13:00:24.727Z</time>
      </trkpt>
      <trkpt lat="53.025082" lon="9.031366">
        <ele>22.091337</ele>
        <time>2026-03-20T13:01:23.418Z</time>
      </trkpt>
      <trkpt lat="53.024966" lon="9.031424">
        <ele>22.253684</ele>
        <time>2026-03-20T13:01:27.708Z</time>
      </trkpt>
      <trkpt lat="53.024609" lon="9.031446">
        <ele>22.732482</ele>
        <time>2026-03-20T13:01:40.269Z</time>
      </trkpt>
      <trkpt lat="53.024154" lon="9.031436">
        <ele>23.342348</ele>
        <time>2026-03-20T13:01:55.576Z</time>
      </trkpt>
      <trkpt lat="53.023684" lon="9.031426">
        <ele>23.758863</ele>
        <time>2026-03-20T13:02:07.060Z</time>
      </trkpt>
      <trkpt lat="53.023291" lon="9.031413">
        <ele>23.947415</ele>
        <time>2026-03-20T13:02:19.194Z</time>
      </trkpt>
      <trkpt lat="53.022788" lon="9.031365">
        <ele>24.189091</ele>
        <time>2026-03-20T13:02:35.095Z</time>
      </trkpt>
      <trkpt lat="53.022604" lon="9.031355">
        <ele>24.277399</ele>
        <time>2026-03-20T13:02:40.716Z</time>
      </trkpt>
      <trkpt lat="53.022505" lon="9.031352">
        <ele>24.324895</ele>
        <time>2026-03-20T13:02:43.704Z</time>
      </trkpt>
      <trkpt lat="53.022059" lon="9.031315">
        <ele>24.538149</ele>
        <time>2026-03-20T13:02:57.137Z</time>
      </trkpt>
      <trkpt lat="53.021708" lon="9.031378">
        <ele>24.703085</ele>
        <time>2026-03-20T13:03:07.950Z</time>
      </trkpt>
      <trkpt lat="53.020718" lon="9.031364">
        <ele>25.165618</ele>
        <time>2026-03-20T13:03:39.293Z</time>
      </trkpt>
      <trkpt lat="53.020662" lon="9.031344">
        <ele>25.192377</ele>
        <time>2026-03-20T13:03:41.084Z</time>
      </trkpt>
      <trkpt lat="53.020610" lon="9.031268">
        <ele>25.224725</ele>
        <time>2026-03-20T13:03:43.258Z</time>
      </trkpt>
      <trkpt lat="53.020536" lon="9.031090">
        <ele>25.285532</ele>
        <time>2026-03-20T13:03:47.302Z</time>
      </trkpt>
      <trkpt lat="53.020493" lon="9.031097">
        <ele>25.305717</ele>
        <time>2026-03-20T13:03:48.664Z</time>
      </trkpt>
      <trkpt lat="53.020444" lon="9.031101">
        <ele>25.328637</ele>
        <time>2026-03-20T13:03:50.166Z</time>
      </trkpt>
      <trkpt lat="53.020401" lon="9.031105">
        <ele>25.340463</ele>
        <time>2026-03-20T13:03:51.464Z</time>
      </trkpt>
      <trkpt lat="53.020358" lon="9.031268">
        <ele>25.318896</ele>
        <time>2026-03-20T13:03:54.795Z</time>
      </trkpt>
      <trkpt lat="53.020259" lon="9.031362">
        <ele>25.295930</ele>
        <time>2026-03-20T13:03:58.299Z</time>
      </trkpt>
      <trkpt lat="53.019886" lon="9.031362">
        <ele>25.220792</ele>
        <time>2026-03-20T13:04:09.670Z</time>
      </trkpt>
      <trkpt lat="53.019582" lon="9.031356">
        <ele>25.159550</ele>
        <time>2026-03-20T13:04:18.664Z</time>
      </trkpt>
      <trkpt lat="53.018755" lon="9.031324">
        <ele>24.992912</ele>
        <time>2026-03-20T13:04:41.371Z</time>
      </trkpt>
      <trkpt lat="53.018728" lon="9.031323">
        <ele>24.987472</ele>
        <time>2026-03-20T13:04:42.084Z</time>
      </trkpt>
      <trkpt lat="53.017494" lon="9.031275">
        <ele>23.797596</ele>
        <time>2026-03-20T13:05:13.603Z</time>
      </trkpt>
      <trkpt lat="53.017046" lon="9.031320">
        <ele>23.355276</ele>
        <time>2026-03-20T13:05:25.506Z</time>
      </trkpt>
      <trkpt lat="53.016994" lon="9.031302">
        <ele>23.302930</ele>
        <time>2026-03-20T13:05:26.956Z</time>
      </trkpt>
      <trkpt lat="53.016959" lon="9.031249">
        <ele>23.256270</ele>
        <time>2026-03-20T13:05:28.240Z</time>
      </trkpt>
      <trkpt lat="53.016922" lon="9.031120">
        <ele>23.214226</ele>
        <time>2026-03-20T13:05:30.571Z</time>
      </trkpt>
      <trkpt lat="53.016853" lon="9.031103">
        <ele>23.225880</ele>
        <time>2026-03-20T13:05:32.434Z</time>
      </trkpt>
      <trkpt lat="53.016791" lon="9.031091">
        <ele>23.236309</ele>
        <time>2026-03-20T13:05:34.152Z</time>
      </trkpt>
      <trkpt lat="53.016751" lon="9.031187">
        <ele>23.248046</ele>
        <time>2026-03-20T13:05:36.064Z</time>
      </trkpt>
      <trkpt lat="53.016613" lon="9.031460">
        <ele>23.283887</ele>
        <time>2026-03-20T13:05:41.945Z</time>
      </trkpt>
      <trkpt lat="53.016623" lon="9.031525">
        <ele>23.290630</ele>
        <time>2026-03-20T13:05:43.065Z</time>
      </trkpt>
      <trkpt lat="53.016642" lon="9.031616">
        <ele>23.300312</ele>
        <time>2026-03-20T13:05:44.679Z</time>
      </trkpt>
      <trkpt lat="53.016655" lon="9.031683">
        <ele>23.307388</ele>
        <time>2026-03-20T13:05:45.879Z</time>
      </trkpt>
      <trkpt lat="53.016710" lon="9.031695">
        <ele>23.316656</ele>
        <time>2026-03-20T13:05:47.449Z</time>
      </trkpt>
      <trkpt lat="53.016797" lon="9.031814">
        <ele>23.335480</ele>
        <time>2026-03-20T13:05:50.659Z</time>
      </trkpt>
      <trkpt lat="53.016836" lon="9.031819">
        <ele>23.342016</ele>
        <time>2026-03-20T13:05:51.809Z</time>
      </trkpt>
      <trkpt lat="53.016812" lon="9.032023">
        <ele>23.362908</ele>
        <time>2026-03-20T13:05:54.614Z</time>
      </trkpt>
      <trkpt lat="53.016730" lon="9.032167">
        <ele>23.382838</ele>
        <time>2026-03-20T13:05:57.362Z</time>
      </trkpt>
      <trkpt lat="53.016601" lon="9.032227">
        <ele>23.405219</ele>
        <time>2026-03-20T13:06:00.618Z</time>
      </trkpt>
      <trkpt lat="53.016402" lon="9.032188">
        <ele>23.438697</ele>
        <time>2026-03-20T13:06:05.734Z</time>
      </trkpt>
      <trkpt lat="53.016348" lon="9.032175">
        <ele>23.447814</ele>
        <time>2026-03-20T13:06:07.137Z</time>
      </trkpt>
      <trkpt lat="53.016247" lon="9.032151">
        <ele>23.464860</ele>
        <time>2026-03-20T13:06:09.750Z</time>
      </trkpt>
      <trkpt lat="53.016002" lon="9.032088">
        <ele>23.506281</ele>
        <time>2026-03-20T13:06:16.121Z</time>
      </trkpt>
      <trkpt lat="53.015937" lon="9.032071">
        <ele>23.595383</ele>
        <time>2026-03-20T13:06:17.820Z</time>
      </trkpt>
      <trkpt lat="53.015841" lon="9.032670">
        <ele>24.215614</ele>
        <time>2026-03-20T13:06:27.558Z</time>
      </trkpt>
      <trkpt lat="53.015735" lon="9.033335">
        <ele>24.903940</ele>
        <time>2026-03-20T13:06:39.688Z</time>
      </trkpt>
      <trkpt lat="53.015619" lon="9.034092">
        <ele>25.685543</ele>
        <time>2026-03-20T13:06:54.178Z</time>
      </trkpt>
      <trkpt lat="53.015495" lon="9.034930">
        <ele>26.540135</ele>
        <time>2026-03-20T13:07:09.917Z</time>
      </trkpt>
      <trkpt lat="53.015347" lon="9.035799">
        <ele>27.280348</ele>
        <time>2026-03-20T13:07:25.771Z</time>
      </trkpt>
      <trkpt lat="53.015213" lon="9.036529">
        <ele>27.905882</ele>
        <time>2026-03-20T13:07:38.532Z</time>
      </trkpt>
      <trkpt lat="53.015157" lon="9.036502">
        <ele>27.985318</ele>
        <time>2026-03-20T13:07:40.106Z</time>
      </trkpt>
      <trkpt lat="53.014907" lon="9.036391">
        <ele>28.337846</ele>
        <time>2026-03-20T13:07:46.989Z</time>
      </trkpt>
      <trkpt lat="53.014665" lon="9.036269">
        <ele>28.682365</ele>
        <time>2026-03-20T13:07:53.573Z</time>
      </trkpt>
      <trkpt lat="53.014565" lon="9.036249">
        <ele>28.819582</ele>
        <time>2026-03-20T13:07:56.213Z</time>
      </trkpt>
      <trkpt lat="53.013930" lon="9.036125">
        <ele>29.451082</ele>
        <time>2026-03-20T13:08:13.194Z</time>
      </trkpt>
      <trkpt lat="53.013914" lon="9.036122">
        <ele>29.465919</ele>
        <time>2026-03-20T13:08:13.639Z</time>
      </trkpt>
      <trkpt lat="53.013776" lon="9.036095">
        <ele>29.593964</ele>
        <time>2026-03-20T13:08:17.383Z</time>
      </trkpt>
      <trkpt lat="53.013618" lon="9.036065">
        <ele>29.740508</ele>
        <time>2026-03-20T13:08:21.726Z</time>
      </trkpt>
      <trkpt lat="53.013496" lon="9.036043">
        <ele>29.853591</ele>
        <time>2026-03-20T13:08:25.075Z</time>
      </trkpt>
      <trkpt lat="53.013348" lon="9.036015">
        <ele>29.990853</ele>
        <time>2026-03-20T13:08:29.120Z</time>
      </trkpt>
      <trkpt lat="53.013019" lon="9.035963">
        <ele>30.295395</ele>
        <time>2026-03-20T13:08:37.914Z</time>
      </trkpt>
      <trkpt lat="53.012743" lon="9.035973">
        <ele>30.549789</ele>
        <time>2026-03-20T13:08:44.929Z</time>
      </trkpt>
      <trkpt lat="53.012539" lon="9.036004">
        <ele>30.451659</ele>
        <time>2026-03-20T13:08:49.821Z</time>
      </trkpt>
      <trkpt lat="53.012479" lon="9.036008">
        <ele>30.385564</ele>
        <time>2026-03-20T13:08:51.225Z</time>
      </trkpt>
      <trkpt lat="53.012325" lon="9.035929">
        <ele>30.208168</ele>
        <time>2026-03-20T13:08:54.923Z</time>
      </trkpt>
      <trkpt lat="53.012201" lon="9.035844">
        <ele>30.060530</ele>
        <time>2026-03-20T13:08:57.847Z</time>
      </trkpt>
      <trkpt lat="53.012108" lon="9.035728">
        <ele>29.932548</ele>
        <time>2026-03-20T13:09:00.277Z</time>
      </trkpt>
      <trkpt lat="53.012126" lon="9.035688">
        <ele>29.899469</ele>
        <time>2026-03-20T13:09:00.906Z</time>
      </trkpt>
      <trkpt lat="53.012454" lon="9.035057">
        <ele>29.347245</ele>
        <time>2026-03-20T13:09:10.742Z</time>
      </trkpt>
      <trkpt lat="53.012504" lon="9.034922">
        <ele>29.242264</ele>
        <time>2026-03-20T13:09:12.518Z</time>
      </trkpt>
      <trkpt lat="53.012697" lon="9.034403">
        <ele>28.838218</ele>
        <time>2026-03-20T13:09:19.271Z</time>
      </trkpt>
      <trkpt lat="53.012729" lon="9.034261">
        <ele>28.737803</ele>
        <time>2026-03-20T13:09:20.876Z</time>
      </trkpt>
      <trkpt lat="53.012841" lon="9.033845">
        <ele>28.205899</ele>
        <time>2026-03-20T13:09:25.782Z</time>
      </trkpt>
      <trkpt lat="53.012903" lon="9.033538">
        <ele>27.734546</ele>
        <time>2026-03-20T13:09:29.236Z</time>
      </trkpt>
      <trkpt lat="53.012966" lon="9.033221">
        <ele>27.248620</ele>
        <time>2026-03-20T13:09:32.841Z</time>
      </trkpt>
      <trkpt lat="53.012975" lon="9.033139">
        <ele>27.127297</ele>
        <time>2026-03-20T13:09:33.749Z</time>
      </trkpt>
      <trkpt lat="53.013060" lon="9.033140">
        <ele>26.921652</ele>
        <time>2026-03-20T13:09:35.195Z</time>
      </trkpt>
      <trkpt lat="53.013114" lon="9.033060">
        <ele>26.746648</ele>
        <time>2026-03-20T13:09:36.433Z</time>
      </trkpt>
      <trkpt lat="53.013120" lon="9.032900">
        <ele>26.513312</ele>
        <time>2026-03-20T13:09:38.072Z</time>
      </trkpt>
      <trkpt lat="53.013050" lon="9.032794">
        <ele>26.284219</ele>
        <time>2026-03-20T13:09:39.669Z</time>
      </trkpt>
      <trkpt lat="53.013017" lon="9.032672">
        <ele>26.089522</ele>
        <time>2026-03-20T13:09:41.066Z</time>
      </trkpt>
      <trkpt lat="53.012951" lon="9.032426">
        <ele>25.697472</ele>
        <time>2026-03-20T13:09:43.856Z</time>
      </trkpt>
      <trkpt lat="53.012899" lon="9.032212">
        <ele>25.361543</ele>
        <time>2026-03-20T13:09:46.228Z</time>
      </trkpt>
      <trkpt lat="53.012858" lon="9.032002">
        <ele>25.040189</ele>
        <time>2026-03-20T13:09:48.521Z</time>
      </trkpt>
      <trkpt lat="53.012853" lon="9.031976">
        <ele>25.000459</ele>
        <time>2026-03-20T13:09:48.815Z</time>
      </trkpt>
      <trkpt lat="53.012795" lon="9.031689">
        <ele>24.559783</ele>
        <time>2026-03-20T13:09:51.993Z</time>
      </trkpt>
      <trkpt lat="53.012622" lon="9.030807">
        <ele>22.587759</ele>
        <time>2026-03-20T13:10:01.398Z</time>
      </trkpt>
      <trkpt lat="53.012532" lon="9.030388">
        <ele>21.562889</ele>
        <time>2026-03-20T13:10:05.737Z</time>
      </trkpt>
      <trkpt lat="53.012438" lon="9.029984">
        <ele>20.565069</ele>
        <time>2026-03-20T13:10:09.786Z</time>
      </trkpt>
      <trkpt lat="53.012420" lon="9.029894">
        <ele>20.346591</ele>
        <time>2026-03-20T13:10:10.662Z</time>
      </trkpt>
      <trkpt lat="53.012377" lon="9.029625">
        <ele>19.705425</ele>
        <time>2026-03-20T13:10:13.233Z</time>
      </trkpt>
      <trkpt lat="53.012350" lon="9.029418">
        <ele>19.217504</ele>
        <time>2026-03-20T13:10:15.185Z</time>
      </trkpt>
      <trkpt lat="53.012344" lon="9.029024">
        <ele>18.309596</ele>
        <time>2026-03-20T13:10:18.811Z</time>
      </trkpt>
      <trkpt lat="53.012384" lon="9.028613">
        <ele>17.350230</ele>
        <time>2026-03-20T13:10:22.646Z</time>
      </trkpt>
      <trkpt lat="53.012403" lon="9.028472">
        <ele>17.014998</ele>
        <time>2026-03-20T13:10:23.971Z</time>
      </trkpt>
      <trkpt lat="53.012369" lon="9.028416">
        <ele>16.830417</ele>
        <time>2026-03-20T13:10:24.975Z</time>
      </trkpt>
      <trkpt lat="53.012283" lon="9.028088">
        <ele>16.000314</ele>
        <time>2026-03-20T13:10:29.454Z</time>
      </trkpt>
      <trkpt lat="53.012173" lon="9.027673">
        <ele>14.948189</ele>
        <time>2026-03-20T13:10:35.120Z</time>
      </trkpt>
      <trkpt lat="53.012038" lon="9.027292">
        <ele>13.922336</ele>
        <time>2026-03-20T13:10:40.718Z</time>
      </trkpt>
      <trkpt lat="53.011938" lon="9.027222">
        <ele>13.503912</ele>
        <time>2026-03-20T13:10:42.399Z</time>
      </trkpt>
      <trkpt lat="53.011775" lon="9.027010">
        <ele>12.705781</ele>
        <time>2026-03-20T13:10:45.652Z</time>
      </trkpt>
      <trkpt lat="53.011565" lon="9.026687">
        <ele>11.602437</ele>
        <time>2026-03-20T13:10:50.431Z</time>
      </trkpt>
      <trkpt lat="53.011455" lon="9.026451">
        <ele>10.909807</ele>
        <time>2026-03-20T13:10:53.496Z</time>
      </trkpt>
      <trkpt lat="53.011430" lon="9.026294">
        <ele>10.533009</ele>
        <time>2026-03-20T13:10:55.170Z</time>
      </trkpt>
      <trkpt lat="53.011432" lon="9.025945">
        <ele>10.290888</ele>
        <time>2026-03-20T13:10:58.805Z</time>
      </trkpt>
      <trkpt lat="53.011490" lon="9.025162">
        <ele>9.882412</ele>
        <time>2026-03-20T13:11:07.348Z</time>
      </trkpt>
      <trkpt lat="53.011552" lon="9.023894">
        <ele>9.223713</ele>
        <time>2026-03-20T13:11:23.598Z</time>
      </trkpt>
      <trkpt lat="53.011604" lon="9.023136">
        <ele>8.908843</ele>
        <time>2026-03-20T13:11:34.115Z</time>
      </trkpt>
      <trkpt lat="53.011601" lon="9.022800">
        <ele>8.915052</ele>
        <time>2026-03-20T13:11:38.763Z</time>
      </trkpt>
      <trkpt lat="53.011560" lon="9.022417">
        <ele>8.922240</ele>
        <time>2026-03-20T13:11:44.158Z</time>
      </trkpt>
      <trkpt lat="53.011492" lon="9.022058">
        <ele>8.929194</ele>
        <time>2026-03-20T13:11:49.478Z</time>
      </trkpt>
      <trkpt lat="53.011197" lon="9.020598">
        <ele>8.957650</ele>
        <time>2026-03-20T13:12:10.221Z</time>
      </trkpt>
      <trkpt lat="53.011177" lon="9.020528">
        <ele>8.959082</ele>
        <time>2026-03-20T13:12:11.226Z</time>
      </trkpt>
      <trkpt lat="53.011064" lon="9.019960">
        <ele>8.862422</ele>
        <time>2026-03-20T13:12:18.785Z</time>
      </trkpt>
      <trkpt lat="53.010941" lon="9.019402">
        <ele>8.739278</ele>
        <time>2026-03-20T13:12:26.250Z</time>
      </trkpt>
      <trkpt lat="53.010411" lon="9.017020">
        <ele>8.576790</ele>
        <time>2026-03-20T13:12:57.947Z</time>
      </trkpt>
      <trkpt lat="53.010255" lon="9.016331">
        <ele>8.854974</ele>
        <time>2026-03-20T13:13:08.334Z</time>
      </trkpt>
      <trkpt lat="53.010174" lon="9.015955">
        <ele>9.005890</ele>
        <time>2026-03-20T13:13:14.393Z</time>
      </trkpt>
      <trkpt lat="53.010125" lon="9.015302">
        <ele>9.254559</ele>
        <time>2026-03-20T13:13:25.439Z</time>
      </trkpt>
      <trkpt lat="53.010516" lon="9.013697">
        <ele>10.165931</ele>
        <time>2026-03-20T13:13:56.004Z</time>
      </trkpt>
      <trkpt lat="53.010755" lon="9.012714">
        <ele>10.802009</ele>
        <time>2026-03-20T13:14:13.415Z</time>
      </trkpt>
      <trkpt lat="53.010783" lon="9.012651">
        <ele>10.849000</ele>
        <time>2026-03-20T13:14:14.615Z</time>
      </trkpt>
      <trkpt lat="53.010801" lon="9.012612">
        <ele>10.878489</ele>
        <time>2026-03-20T13:14:15.340Z</time>
      </trkpt>
      <trkpt lat="53.010865" lon="9.012590">
        <ele>10.943656</ele>
        <time>2026-03-20T13:14:16.942Z</time>
      </trkpt>
      <trkpt lat="53.010769" lon="9.011727">
        <ele>11.257672</ele>
        <time>2026-03-20T13:14:30.516Z</time>
      </trkpt>
      <trkpt lat="53.010881" lon="9.010714">
        <ele>11.235650</ele>
        <time>2026-03-20T13:14:45.929Z</time>
      </trkpt>
      <trkpt lat="53.011536" lon="9.009098">
        <ele>11.104403</ele>
        <time>2026-03-20T13:15:19.590Z</time>
      </trkpt>
      <trkpt lat="53.011612" lon="9.008632">
        <ele>10.963414</ele>
        <time>2026-03-20T13:15:27.622Z</time>
      </trkpt>
      <trkpt lat="53.011594" lon="9.008367">
        <ele>10.885539</ele>
        <time>2026-03-20T13:15:30.903Z</time>
      </trkpt>
      <trkpt lat="53.011592" lon="9.008335">
        <ele>10.876145</ele>
        <time>2026-03-20T13:15:31.282Z</time>
      </trkpt>
      <trkpt lat="53.011545" lon="9.007641">
        <ele>10.672208</ele>
        <time>2026-03-20T13:15:39.879Z</time>
      </trkpt>
      <trkpt lat="53.011506" lon="9.007079">
        <ele>10.507008</ele>
        <time>2026-03-20T13:15:46.769Z</time>
      </trkpt>
      <trkpt lat="53.011488" lon="9.006697">
        <ele>10.395117</ele>
        <time>2026-03-20T13:15:51.365Z</time>
      </trkpt>
      <trkpt lat="53.011411" lon="9.005361">
        <ele>9.761943</ele>
        <time>2026-03-20T13:16:07.647Z</time>
      </trkpt>
      <trkpt lat="53.011340" lon="9.003994">
        <ele>9.063747</ele>
        <time>2026-03-20T13:16:23.885Z</time>
      </trkpt>
      <trkpt lat="53.011337" lon="9.003832">
        <ele>8.981273</ele>
        <time>2026-03-20T13:16:25.762Z</time>
      </trkpt>
      <trkpt lat="53.011332" lon="9.003738">
        <ele>8.933254</ele>
        <time>2026-03-20T13:16:26.828Z</time>
      </trkpt>
      <trkpt lat="53.011261" lon="9.002479">
        <ele>8.330522</ele>
        <time>2026-03-20T13:16:46.201Z</time>
      </trkpt>
      <trkpt lat="53.011155" lon="9.000599">
        <ele>7.445359</ele>
        <time>2026-03-20T13:17:16.661Z</time>
      </trkpt>
      <trkpt lat="53.011026" lon="8.998838">
        <ele>7.461238</ele>
        <time>2026-03-20T13:17:48.418Z</time>
      </trkpt>
      <trkpt lat="53.010710" lon="8.996440">
        <ele>7.541179</ele>
        <time>2026-03-20T13:18:32.564Z</time>
      </trkpt>
      <trkpt lat="53.010739" lon="8.995773">
        <ele>7.562614</ele>
        <time>2026-03-20T13:18:44.311Z</time>
      </trkpt>
      <trkpt lat="53.010801" lon="8.994289">
        <ele>7.617772</ele>
        <time>2026-03-20T13:19:10.543Z</time>
      </trkpt>
      <trkpt lat="53.011027" lon="8.993086">
        <ele>7.687511</ele>
        <time>2026-03-20T13:19:32.807Z</time>
      </trkpt>
      <trkpt lat="53.011289" lon="8.991652">
        <ele>7.767922</ele>
        <time>2026-03-20T13:19:59.748Z</time>
      </trkpt>
      <trkpt lat="53.011571" lon="8.990181">
        <ele>7.810456</ele>
        <time>2026-03-20T13:20:27.401Z</time>
      </trkpt>
      <trkpt lat="53.011671" lon="8.989834">
        <ele>7.821056</ele>
        <time>2026-03-20T13:20:34.207Z</time>
      </trkpt>
      <trkpt lat="53.012093" lon="8.989107">
        <ele>7.844476</ele>
        <time>2026-03-20T13:20:51.908Z</time>
      </trkpt>
      <trkpt lat="53.012316" lon="8.988666">
        <ele>7.796757</ele>
        <time>2026-03-20T13:21:01.865Z</time>
      </trkpt>
      <trkpt lat="53.012446" lon="8.988348">
        <ele>7.764910</ele>
        <time>2026-03-20T13:21:08.444Z</time>
      </trkpt>
      <trkpt lat="53.012518" lon="8.988172">
        <ele>7.747280</ele>
        <time>2026-03-20T13:21:12.081Z</time>
      </trkpt>
      <trkpt lat="53.012589" lon="8.987600">
        <ele>7.698901</ele>
        <time>2026-03-20T13:21:22.175Z</time>
      </trkpt>
      <trkpt lat="53.012614" lon="8.986935">
        <ele>7.643709</ele>
        <time>2026-03-20T13:21:33.787Z</time>
      </trkpt>
      <trkpt lat="53.012587" lon="8.986416">
        <ele>7.600557</ele>
        <time>2026-03-20T13:21:42.865Z</time>
      </trkpt>
      <trkpt lat="53.010723" lon="8.983029">
        <ele>7.157642</ele>
        <time>2026-03-20T13:22:42.229Z</time>
      </trkpt>
      <trkpt lat="53.010551" lon="8.982584">
        <ele>7.119134</ele>
        <time>2026-03-20T13:22:49.157Z</time>
      </trkpt>
      <trkpt lat="53.013433" lon="8.975548">
        <ele>7.323440</ele>
        <time>2026-03-20T13:24:44.516Z</time>
      </trkpt>
      <trkpt lat="53.013614" lon="8.975119">
        <ele>7.324013</ele>
        <time>2026-03-20T13:24:51.538Z</time>
      </trkpt>
      <trkpt lat="53.014015" lon="8.974054">
        <ele>7.247482</ele>
        <time>2026-03-20T13:25:08.002Z</time>
      </trkpt>
      <trkpt lat="53.014099" lon="8.973727">
        <ele>7.187487</ele>
        <time>2026-03-20T13:25:12.566Z</time>
      </trkpt>
      <trkpt lat="53.014302" lon="8.972150">
        <ele>6.915376</ele>
        <time>2026-03-20T13:25:32.843Z</time>
      </trkpt>
      <trkpt lat="53.014347" lon="8.971657">
        <ele>6.831240</ele>
        <time>2026-03-20T13:25:39.197Z</time>
      </trkpt>
      <trkpt lat="53.014299" lon="8.971501">
        <ele>6.808149</ele>
        <time>2026-03-20T13:25:41.437Z</time>
      </trkpt>
      <trkpt lat="53.014167" lon="8.971394">
        <ele>6.781175</ele>
        <time>2026-03-20T13:25:44.568Z</time>
      </trkpt>
      <trkpt lat="53.013186" lon="8.970991">
        <ele>6.595572</ele>
        <time>2026-03-20T13:26:06.330Z</time>
      </trkpt>
      <trkpt lat="53.013128" lon="8.970905">
        <ele>6.581297</ele>
        <time>2026-03-20T13:26:08.014Z</time>
      </trkpt>
      <trkpt lat="53.013124" lon="8.970782">
        <ele>6.567685</ele>
        <time>2026-03-20T13:26:09.619Z</time>
      </trkpt>
      <trkpt lat="53.014170" lon="8.966217">
        <ele>6.339596</ele>
        <time>2026-03-20T13:27:14.119Z</time>
      </trkpt>
      <trkpt lat="53.009755" lon="8.964108">
        <ele>6.265758</ele>
        <time>2026-03-20T13:28:56.166Z</time>
      </trkpt>
      <trkpt lat="53.009710" lon="8.964028">
        <ele>6.264442</ele>
        <time>2026-03-20T13:28:57.605Z</time>
      </trkpt>
      <trkpt lat="53.009710" lon="8.963921">
        <ele>6.257436</ele>
        <time>2026-03-20T13:28:59.012Z</time>
      </trkpt>
      <trkpt lat="53.010342" lon="8.961314">
        <ele>6.012182</ele>
        <time>2026-03-20T13:29:35.619Z</time>
      </trkpt>
      <trkpt lat="53.010575" lon="8.960053">
        <ele>5.997165</ele>
        <time>2026-03-20T13:29:52.980Z</time>
      </trkpt>
      <trkpt lat="53.010576" lon="8.959758">
        <ele>5.995698</ele>
        <time>2026-03-20T13:29:56.896Z</time>
      </trkpt>
      <trkpt lat="53.010351" lon="8.957750">
        <ele>6.063519</ele>
        <time>2026-03-20T13:30:25.665Z</time>
      </trkpt>
      <trkpt lat="53.009625" lon="8.950954">
        <ele>7.210440</ele>
        <time>2026-03-20T13:32:02.444Z</time>
      </trkpt>
      <trkpt lat="53.009448" lon="8.949362">
        <ele>7.590036</ele>
        <time>2026-03-20T13:32:26.194Z</time>
      </trkpt>
      <trkpt lat="53.009385" lon="8.948759">
        <ele>7.740428</ele>
        <time>2026-03-20T13:32:35.062Z</time>
      </trkpt>
      <trkpt lat="53.009219" lon="8.947134">
        <ele>8.145453</ele>
        <time>2026-03-20T13:32:58.753Z</time>
      </trkpt>
      <trkpt lat="53.009217" lon="8.946910">
        <ele>8.200503</ele>
        <time>2026-03-20T13:33:01.881Z</time>
      </trkpt>
      <trkpt lat="53.009249" lon="8.946692">
        <ele>8.255643</ele>
        <time>2026-03-20T13:33:05.038Z</time>
      </trkpt>
      <trkpt lat="53.009325" lon="8.946445">
        <ele>8.302829</ele>
        <time>2026-03-20T13:33:08.958Z</time>
      </trkpt>
      <trkpt lat="53.009649" lon="8.945150">
        <ele>8.390107</ele>
        <time>2026-03-20T13:33:28.845Z</time>
      </trkpt>
      <trkpt lat="53.009639" lon="8.944928">
        <ele>8.403961</ele>
        <time>2026-03-20T13:33:31.854Z</time>
      </trkpt>
      <trkpt lat="53.009577" lon="8.944594">
        <ele>8.425712</ele>
        <time>2026-03-20T13:33:36.459Z</time>
      </trkpt>
      <trkpt lat="53.009622" lon="8.944316">
        <ele>8.443628</ele>
        <time>2026-03-20T13:33:40.204Z</time>
      </trkpt>
      <trkpt lat="53.009689" lon="8.944106">
        <ele>8.458420</ele>
        <time>2026-03-20T13:33:43.283Z</time>
      </trkpt>
      <trkpt lat="53.010216" lon="8.943154">
        <ele>8.342979</ele>
        <time>2026-03-20T13:34:00.051Z</time>
      </trkpt>
      <trkpt lat="53.010545" lon="8.942288">
        <ele>8.188313</ele>
        <time>2026-03-20T13:34:13.126Z</time>
      </trkpt>
      <trkpt lat="53.010606" lon="8.942119">
        <ele>8.158552</ele>
        <time>2026-03-20T13:34:15.647Z</time>
      </trkpt>
      <trkpt lat="53.010657" lon="8.942048">
        <ele>8.141854</ele>
        <time>2026-03-20T13:34:17.042Z</time>
      </trkpt>
      <trkpt lat="53.010818" lon="8.942066">
        <ele>8.101353</ele>
        <time>2026-03-20T13:34:20.442Z</time>
      </trkpt>
      <trkpt lat="53.010981" lon="8.942030">
        <ele>8.060082</ele>
        <time>2026-03-20T13:34:23.929Z</time>
      </trkpt>
      <trkpt lat="53.011190" lon="8.941263">
        <ele>7.873109</ele>
        <time>2026-03-20T13:34:34.632Z</time>
      </trkpt>
      <trkpt lat="53.011210" lon="8.941182">
        <ele>7.851763</ele>
        <time>2026-03-20T13:34:35.744Z</time>
      </trkpt>
      <trkpt lat="53.011315" lon="8.940767">
        <ele>7.742008</ele>
        <time>2026-03-20T13:34:41.444Z</time>
      </trkpt>
      <trkpt lat="53.011438" lon="8.940271">
        <ele>7.611219</ele>
        <time>2026-03-20T13:34:48.214Z</time>
      </trkpt>
      <trkpt lat="53.011465" lon="8.939965">
        <ele>7.535821</ele>
        <time>2026-03-20T13:34:52.090Z</time>
      </trkpt>
      <trkpt lat="53.011092" lon="8.937792">
        <ele>6.871020</ele>
        <time>2026-03-20T13:35:19.947Z</time>
      </trkpt>
      <trkpt lat="53.010420" lon="8.933935">
        <ele>5.540328</ele>
        <time>2026-03-20T13:36:11.111Z</time>
      </trkpt>
      <trkpt lat="53.010320" lon="8.933281">
        <ele>5.321320</ele>
        <time>2026-03-20T13:36:19.793Z</time>
      </trkpt>
      <trkpt lat="53.010288" lon="8.932583">
        <ele>5.412524</ele>
        <time>2026-03-20T13:36:29.129Z</time>
      </trkpt>
      <trkpt lat="53.010304" lon="8.931908">
        <ele>5.500535</ele>
        <time>2026-03-20T13:36:38.556Z</time>
      </trkpt>
      <trkpt lat="53.010439" lon="8.930525">
        <ele>5.683077</ele>
        <time>2026-03-20T13:36:59.784Z</time>
      </trkpt>
      <trkpt lat="53.010565" lon="8.929845">
        <ele>5.873333</ele>
        <time>2026-03-20T13:37:11.241Z</time>
      </trkpt>
      <trkpt lat="53.010970" lon="8.928472">
        <ele>6.365862</ele>
        <time>2026-03-20T13:37:35.239Z</time>
      </trkpt>
      <trkpt lat="53.010986" lon="8.928331">
        <ele>6.412078</ele>
        <time>2026-03-20T13:37:37.390Z</time>
      </trkpt>
      <trkpt lat="53.011314" lon="8.928175">
        <ele>6.594718</ele>
        <time>2026-03-20T13:37:47.793Z</time>
      </trkpt>
      <trkpt lat="53.012506" lon="8.926630">
        <ele>6.541405</ele>
        <time>2026-03-20T13:38:20.798Z</time>
      </trkpt>
      <trkpt lat="53.013425" lon="8.924945">
        <ele>6.234194</ele>
        <time>2026-03-20T13:38:50.226Z</time>
      </trkpt>
      <trkpt lat="53.014037" lon="8.923245">
        <ele>5.862283</ele>
        <time>2026-03-20T13:39:15.146Z</time>
      </trkpt>
      <trkpt lat="53.014176" lon="8.923014">
        <ele>5.786473</ele>
        <time>2026-03-20T13:39:19.193Z</time>
      </trkpt>
      <trkpt lat="53.014430" lon="8.922746">
        <ele>5.670438</ele>
        <time>2026-03-20T13:39:25.408Z</time>
      </trkpt>
      <trkpt lat="53.015632" lon="8.922151">
        <ele>5.252707</ele>
        <time>2026-03-20T13:39:51.632Z</time>
      </trkpt>
      <trkpt lat="53.015834" lon="8.922006">
        <ele>5.219272</ele>
        <time>2026-03-20T13:39:56.347Z</time>
      </trkpt>
      <trkpt lat="53.016092" lon="8.921762">
        <ele>5.174167</ele>
        <time>2026-03-20T13:40:02.801Z</time>
      </trkpt>
      <trkpt lat="53.016360" lon="8.921405">
        <ele>5.121980</ele>
        <time>2026-03-20T13:40:10.312Z</time>
      </trkpt>
      <trkpt lat="53.016568" lon="8.921011">
        <ele>5.074061</ele>
        <time>2026-03-20T13:40:17.258Z</time>
      </trkpt>
      <trkpt lat="53.016657" lon="8.920767">
        <ele>5.047976</ele>
        <time>2026-03-20T13:40:21.036Z</time>
      </trkpt>
      <trkpt lat="53.016742" lon="8.920534">
        <ele>5.023067</ele>
        <time>2026-03-20T13:40:24.658Z</time>
      </trkpt>
      <trkpt lat="53.016875" lon="8.919962">
        <ele>5.022981</ele>
        <time>2026-03-20T13:40:32.794Z</time>
      </trkpt>
      <trkpt lat="53.017012" lon="8.919125">
        <ele>5.023968</ele>
        <time>2026-03-20T13:40:44.281Z</time>
      </trkpt>
      <trkpt lat="53.017246" lon="8.917374">
        <ele>5.050140</ele>
        <time>2026-03-20T13:41:08.269Z</time>
      </trkpt>
      <trkpt lat="53.017399" lon="8.916437">
        <ele>5.136130</ele>
        <time>2026-03-20T13:41:21.658Z</time>
      </trkpt>
      <trkpt lat="53.017817" lon="8.913874">
        <ele>5.323921</ele>
        <time>2026-03-20T13:41:58.479Z</time>
      </trkpt>
      <trkpt lat="53.017951" lon="8.912828">
        <ele>5.363087</ele>
        <time>2026-03-20T13:42:12.830Z</time>
      </trkpt>
      <trkpt lat="53.018270" lon="8.910350">
        <ele>5.459759</ele>
        <time>2026-03-20T13:42:46.820Z</time>
      </trkpt>
      <trkpt lat="53.018488" lon="8.909487">
        <ele>5.496410</ele>
        <time>2026-03-20T13:42:59.675Z</time>
      </trkpt>
      <trkpt lat="53.018946" lon="8.905507">
        <ele>5.648280</ele>
        <time>2026-03-20T13:43:54.535Z</time>
      </trkpt>
      <trkpt lat="53.019442" lon="8.900827">
        <ele>5.505111</ele>
        <time>2026-03-20T13:44:57.341Z</time>
      </trkpt>
      <trkpt lat="53.019572" lon="8.900176">
        <ele>5.477769</ele>
        <time>2026-03-20T13:45:06.455Z</time>
      </trkpt>
      <trkpt lat="53.019963" lon="8.898939">
        <ele>5.387272</ele>
        <time>2026-03-20T13:45:24.978Z</time>
      </trkpt>
      <trkpt lat="53.020288" lon="8.897970">
        <ele>5.315269</ele>
        <time>2026-03-20T13:45:39.569Z</time>
      </trkpt>
      <trkpt lat="53.020504" lon="8.897482">
        <ele>5.280202</ele>
        <time>2026-03-20T13:45:47.512Z</time>
      </trkpt>
      <trkpt lat="53.020878" lon="8.896889">
        <ele>5.256235</ele>
        <time>2026-03-20T13:45:58.772Z</time>
      </trkpt>
      <trkpt lat="53.023351" lon="8.893806">
        <ele>5.203460</ele>
        <time>2026-03-20T13:47:07.275Z</time>
      </trkpt>
      <trkpt lat="53.023653" lon="8.893372">
        <ele>5.212710</ele>
        <time>2026-03-20T13:47:16.074Z</time>
      </trkpt>
      <trkpt lat="53.025820" lon="8.889807">
        <ele>5.360342</ele>
        <time>2026-03-20T13:48:24.506Z</time>
      </trkpt>
      <trkpt lat="53.027430" lon="8.886494">
        <ele>6.082919</ele>
        <time>2026-03-20T13:49:24.120Z</time>
      </trkpt>
      <trkpt lat="53.027483" lon="8.886448">
        <ele>6.106602</ele>
        <time>2026-03-20T13:49:25.404Z</time>
      </trkpt>
      <trkpt lat="53.027537" lon="8.886489">
        <ele>6.130118</ele>
        <time>2026-03-20T13:49:26.683Z</time>
      </trkpt>
      <trkpt lat="53.028486" lon="8.888014">
        <ele>6.749227</ele>
        <time>2026-03-20T13:49:58.742Z</time>
      </trkpt>
      <trkpt lat="53.028540" lon="8.887939">
        <ele>6.797413</ele>
        <time>2026-03-20T13:50:00.637Z</time>
      </trkpt>
      <trkpt lat="53.028768" lon="8.887585">
        <ele>7.011047</ele>
        <time>2026-03-20T13:50:08.957Z</time>
      </trkpt>
      <trkpt lat="53.028864" lon="8.887454">
        <ele>7.096098</ele>
        <time>2026-03-20T13:50:12.300Z</time>
      </trkpt>
      <trkpt lat="53.028681" lon="8.887162">
        <ele>7.269796</ele>
        <time>2026-03-20T13:50:19.042Z</time>
      </trkpt>
      <trkpt lat="53.028196" lon="8.886498">
        <ele>7.700049</ele>
        <time>2026-03-20T13:50:35.183Z</time>
      </trkpt>
      <trkpt lat="53.028159" lon="8.886276">
        <ele>7.721875</ele>
        <time>2026-03-20T13:50:38.289Z</time>
      </trkpt>
      <trkpt lat="53.028027" lon="8.885620">
        <ele>7.515424</ele>
        <time>2026-03-20T13:50:46.897Z</time>
      </trkpt>
      <trkpt lat="53.028049" lon="8.885406">
        <ele>7.450629</ele>
        <time>2026-03-20T13:50:49.521Z</time>
      </trkpt>
      <trkpt lat="53.028145" lon="8.885129">
        <ele>7.355214</ele>
        <time>2026-03-20T13:50:53.345Z</time>
      </trkpt>
      <trkpt lat="53.029407" lon="8.882219">
        <ele>6.188891</ele>
        <time>2026-03-20T13:51:36.187Z</time>
      </trkpt>
      <trkpt lat="53.029987" lon="8.880982">
        <ele>5.770445</ele>
        <time>2026-03-20T13:51:55.999Z</time>
      </trkpt>
      <trkpt lat="53.030697" lon="8.879448">
        <ele>5.584055</ele>
        <time>2026-03-20T13:52:21.320Z</time>
      </trkpt>
      <trkpt lat="53.030985" lon="8.878826">
        <ele>5.542224</ele>
        <time>2026-03-20T13:52:31.690Z</time>
      </trkpt>
      <trkpt lat="53.032253" lon="8.876195">
        <ele>5.725970</ele>
        <time>2026-03-20T13:53:17.537Z</time>
      </trkpt>
      <trkpt lat="53.032599" lon="8.875561">
        <ele>5.802502</ele>
        <time>2026-03-20T13:53:29.415Z</time>
      </trkpt>
      <trkpt lat="53.032937" lon="8.874960">
        <ele>5.876058</ele>
        <time>2026-03-20T13:53:40.799Z</time>
      </trkpt>
      <trkpt lat="53.034303" lon="8.872802">
        <ele>6.108044</ele>
        <time>2026-03-20T13:54:23.497Z</time>
      </trkpt>
      <trkpt lat="53.034606" lon="8.872364">
        <ele>6.153612</ele>
        <time>2026-03-20T13:54:32.690Z</time>
      </trkpt>
      <trkpt lat="53.034886" lon="8.872042">
        <ele>6.188395</ele>
        <time>2026-03-20T13:54:40.487Z</time>
      </trkpt>
      <trkpt lat="53.035153" lon="8.871856">
        <ele>6.217973</ele>
        <time>2026-03-20T13:54:47.208Z</time>
      </trkpt>
      <trkpt lat="53.035291" lon="8.871928">
        <ele>6.232751</ele>
        <time>2026-03-20T13:54:50.602Z</time>
      </trkpt>
      <trkpt lat="53.035751" lon="8.872480">
        <ele>6.290711</ele>
        <time>2026-03-20T13:55:03.484Z</time>
      </trkpt>
      <trkpt lat="53.036182" lon="8.872992">
        <ele>6.315664</ele>
        <time>2026-03-20T13:55:15.042Z</time>
      </trkpt>
      <trkpt lat="53.036545" lon="8.873380">
        <ele>6.271006</ele>
        <time>2026-03-20T13:55:24.683Z</time>
      </trkpt>
      <trkpt lat="53.036762" lon="8.873559">
        <ele>6.245937</ele>
        <time>2026-03-20T13:55:30.095Z</time>
      </trkpt>
      <trkpt lat="53.036852" lon="8.873643">
        <ele>6.235256</ele>
        <time>2026-03-20T13:55:32.394Z</time>
      </trkpt>
      <trkpt lat="53.037134" lon="8.873821">
        <ele>6.204040</ele>
        <time>2026-03-20T13:55:39.032Z</time>
      </trkpt>
      <trkpt lat="53.038621" lon="8.874595">
        <ele>5.837284</ele>
        <time>2026-03-20T13:56:12.169Z</time>
      </trkpt>
      <trkpt lat="53.039582" lon="8.875575">
        <ele>5.677271</ele>
        <time>2026-03-20T13:56:35.434Z</time>
      </trkpt>
      <trkpt lat="53.040050" lon="8.875903">
        <ele>5.836039</ele>
        <time>2026-03-20T13:56:46.994Z</time>
      </trkpt>
      <trkpt lat="53.040480" lon="8.876085">
        <ele>5.974753</ele>
        <time>2026-03-20T13:56:57.793Z</time>
      </trkpt>
      <trkpt lat="53.040715" lon="8.876188">
        <ele>6.050728</ele>
        <time>2026-03-20T13:57:03.983Z</time>
      </trkpt>
      <trkpt lat="53.040970" lon="8.876262">
        <ele>6.131652</ele>
        <time>2026-03-20T13:57:10.689Z</time>
      </trkpt>
      <trkpt lat="53.041097" lon="8.876331">
        <ele>6.205271</ele>
        <time>2026-03-20T13:57:14.189Z</time>
      </trkpt>
      <trkpt lat="53.041268" lon="8.876486">
        <ele>6.330178</ele>
        <time>2026-03-20T13:57:19.388Z</time>
      </trkpt>
      <trkpt lat="53.042394" lon="8.878098">
        <ele>7.283060</ele>
        <time>2026-03-20T13:57:56.438Z</time>
      </trkpt>
      <trkpt lat="53.042476" lon="8.878165">
        <ele>7.273516</ele>
        <time>2026-03-20T13:57:58.552Z</time>
      </trkpt>
      <trkpt lat="53.042563" lon="8.878190">
        <ele>7.244211</ele>
        <time>2026-03-20T13:58:00.582Z</time>
      </trkpt>
      <trkpt lat="53.043590" lon="8.878185">
        <ele>6.903331</ele>
        <time>2026-03-20T13:58:22.222Z</time>
      </trkpt>
      <trkpt lat="53.043745" lon="8.878184">
        <ele>6.851883</ele>
        <time>2026-03-20T13:58:25.297Z</time>
      </trkpt>
      <trkpt lat="53.043896" lon="8.878298">
        <ele>6.796843</ele>
        <time>2026-03-20T13:58:28.617Z</time>
      </trkpt>
      <trkpt lat="53.044755" lon="8.878305">
        <ele>6.415264</ele>
        <time>2026-03-20T13:58:45.752Z</time>
      </trkpt>
      <trkpt lat="53.044922" lon="8.878291">
        <ele>6.331292</ele>
        <time>2026-03-20T13:58:49.073Z</time>
      </trkpt>
      <trkpt lat="53.044996" lon="8.878200">
        <ele>6.285077</ele>
        <time>2026-03-20T13:58:50.912Z</time>
      </trkpt>
      <trkpt lat="53.045085" lon="8.878158">
        <ele>6.238619</ele>
        <time>2026-03-20T13:58:52.780Z</time>
      </trkpt>
      <trkpt lat="53.046149" lon="8.878184">
        <ele>5.873541</ele>
        <time>2026-03-20T13:59:15.057Z</time>
      </trkpt>
      <trkpt lat="53.046199" lon="8.878278">
        <ele>5.905183</ele>
        <time>2026-03-20T13:59:16.702Z</time>
      </trkpt>
      <trkpt lat="53.046391" lon="8.878896">
        <ele>6.080561</ele>
        <time>2026-03-20T13:59:26.188Z</time>
      </trkpt>
      <trkpt lat="53.046359" lon="8.879021">
        <ele>6.114813</ele>
        <time>2026-03-20T13:59:28.083Z</time>
      </trkpt>
      <trkpt lat="53.044781" lon="8.880557">
        <ele>7.062380</ele>
        <time>2026-03-20T14:00:14.519Z</time>
      </trkpt>
      <trkpt lat="53.044778" lon="8.880652">
        <ele>7.099477</ele>
        <time>2026-03-20T14:00:15.969Z</time>
      </trkpt>
      <trkpt lat="53.044954" lon="8.881173">
        <ele>7.332521</ele>
        <time>2026-03-20T14:00:25.055Z</time>
      </trkpt>
      <trkpt lat="53.045014" lon="8.883756">
        <ele>7.874814</ele>
        <time>2026-03-20T14:01:02.015Z</time>
      </trkpt>
      <trkpt lat="53.047890" lon="8.883616">
        <ele>7.821805</ele>
        <time>2026-03-20T14:02:25.322Z</time>
      </trkpt>
      <trkpt lat="53.048418" lon="8.883560">
        <ele>7.787113</ele>
        <time>2026-03-20T14:02:40.568Z</time>
      </trkpt>
      <trkpt lat="53.048426" lon="8.883676">
        <ele>7.782510</ele>
        <time>2026-03-20T14:02:42.138Z</time>
      </trkpt>
      <trkpt lat="53.050796" lon="8.883213">
        <ele>7.611213</ele>
        <time>2026-03-20T14:03:34.619Z</time>
      </trkpt>
      <trkpt lat="53.051305" lon="8.883116">
        <ele>7.572241</ele>
        <time>2026-03-20T14:03:46.049Z</time>
      </trkpt>
      <trkpt lat="53.051436" lon="8.883087">
        <ele>7.562149</ele>
        <time>2026-03-20T14:03:48.914Z</time>
      </trkpt>
      <trkpt lat="53.051838" lon="8.882977">
        <ele>7.531040</ele>
        <time>2026-03-20T14:03:57.597Z</time>
      </trkpt>
      <trkpt lat="53.052330" lon="8.882774">
        <ele>7.492332</ele>
        <time>2026-03-20T14:04:08.728Z</time>
      </trkpt>
      <trkpt lat="53.052649" lon="8.882589">
        <ele>7.466535</ele>
        <time>2026-03-20T14:04:16.108Z</time>
      </trkpt>
      <trkpt lat="53.053049" lon="8.882310">
        <ele>7.430721</ele>
        <time>2026-03-20T14:04:25.544Z</time>
      </trkpt>
      <trkpt lat="53.053192" lon="8.882788">
        <ele>7.400828</ele>
        <time>2026-03-20T14:04:32.529Z</time>
      </trkpt>
      <trkpt lat="53.053248" lon="8.882852">
        <ele>7.394500</ele>
        <time>2026-03-20T14:04:34.020Z</time>
      </trkpt>
      <trkpt lat="53.053359" lon="8.882841">
        <ele>7.384143</ele>
        <time>2026-03-20T14:04:36.470Z</time>
      </trkpt>
      <trkpt lat="53.054640" lon="8.882277">
        <ele>7.227920</ele>
        <time>2026-03-20T14:05:05.675Z</time>
      </trkpt>
      <trkpt lat="53.054883" lon="8.882061">
        <ele>7.153941</ele>
        <time>2026-03-20T14:05:11.501Z</time>
      </trkpt>
      <trkpt lat="53.055448" lon="8.881311">
        <ele>6.959857</ele>
        <time>2026-03-20T14:05:26.738Z</time>
      </trkpt>
      <trkpt lat="53.056184" lon="8.880309">
        <ele>6.661084</ele>
        <time>2026-03-20T14:05:46.833Z</time>
      </trkpt>
      <trkpt lat="53.056275" lon="8.880282">
        <ele>6.624379</ele>
        <time>2026-03-20T14:05:48.789Z</time>
      </trkpt>
      <trkpt lat="53.056360" lon="8.880325">
        <ele>6.589101</ele>
        <time>2026-03-20T14:05:50.689Z</time>
      </trkpt>
      <trkpt lat="53.056629" lon="8.880871">
        <ele>6.420609</ele>
        <time>2026-03-20T14:05:59.692Z</time>
      </trkpt>
      <trkpt lat="53.056710" lon="8.880944">
        <ele>6.384030</ele>
        <time>2026-03-20T14:06:01.636Z</time>
      </trkpt>
      <trkpt lat="53.056688" lon="8.880801">
        <ele>6.348802</ele>
        <time>2026-03-20T14:06:04.108Z</time>
      </trkpt>
      <trkpt lat="53.056743" lon="8.880686">
        <ele>6.313727</ele>
        <time>2026-03-20T14:06:06.575Z</time>
      </trkpt>
      <trkpt lat="53.057107" lon="8.880175">
        <ele>6.124613</ele>
        <time>2026-03-20T14:06:19.655Z</time>
      </trkpt>
      <trkpt lat="53.057231" lon="8.879935">
        <ele>6.063114</ele>
        <time>2026-03-20T14:06:24.817Z</time>
      </trkpt>
      <trkpt lat="53.057261" lon="8.879982">
        <ele>6.053956</ele>
        <time>2026-03-20T14:06:25.647Z</time>
      </trkpt>
      <trkpt lat="53.057310" lon="8.880048">
        <ele>6.039943</ele>
        <time>2026-03-20T14:06:26.914Z</time>
      </trkpt>
      <trkpt lat="53.057330" lon="8.879947">
        <ele>6.025737</ele>
        <time>2026-03-20T14:06:28.187Z</time>
      </trkpt>
      <trkpt lat="53.057416" lon="8.879955">
        <ele>6.006592</ele>
        <time>2026-03-20T14:06:29.902Z</time>
      </trkpt>
      <trkpt lat="53.057431" lon="8.879957">
        <ele>6.003247</ele>
        <time>2026-03-20T14:06:30.214Z</time>
      </trkpt>
      <trkpt lat="53.057685" lon="8.879830">
        <ele>5.944296</ele>
        <time>2026-03-20T14:06:35.495Z</time>
      </trkpt>
      <trkpt lat="53.058657" lon="8.879449">
        <ele>5.722333</ele>
        <time>2026-03-20T14:06:56.936Z</time>
      </trkpt>
      <trkpt lat="53.058775" lon="8.879281">
        <ele>5.687814</ele>
        <time>2026-03-20T14:07:00.591Z</time>
      </trkpt>
      <trkpt lat="53.058885" lon="8.879086">
        <ele>5.765061</ele>
        <time>2026-03-20T14:07:04.464Z</time>
      </trkpt>
      <trkpt lat="53.058954" lon="8.879099">
        <ele>5.809586</ele>
        <time>2026-03-20T14:07:06.151Z</time>
      </trkpt>
      <trkpt lat="53.059051" lon="8.878781">
        <ele>5.947007</ele>
        <time>2026-03-20T14:07:11.450Z</time>
      </trkpt>
      <trkpt lat="53.059059" lon="8.878456">
        <ele>6.072350</ele>
        <time>2026-03-20T14:07:16.397Z</time>
      </trkpt>
      <trkpt lat="53.059037" lon="8.878032">
        <ele>6.236346</ele>
        <time>2026-03-20T14:07:22.962Z</time>
      </trkpt>
      <trkpt lat="53.058925" lon="8.877223">
        <ele>6.556258</ele>
        <time>2026-03-20T14:07:35.929Z</time>
      </trkpt>
      <trkpt lat="53.058896" lon="8.876869">
        <ele>6.693933</ele>
        <time>2026-03-20T14:07:41.345Z</time>
      </trkpt>
      <trkpt lat="53.058900" lon="8.876469">
        <ele>6.852715</ele>
        <time>2026-03-20T14:07:47.199Z</time>
      </trkpt>
      <trkpt lat="53.058949" lon="8.875953">
        <ele>7.122136</ele>
        <time>2026-03-20T14:07:54.797Z</time>
      </trkpt>
      <trkpt lat="53.059039" lon="8.875573">
        <ele>7.332784</ele>
        <time>2026-03-20T14:08:00.773Z</time>
      </trkpt>
      <trkpt lat="53.059255" lon="8.874997">
        <ele>7.682931</ele>
        <time>2026-03-20T14:08:10.794Z</time>
      </trkpt>
      <trkpt lat="53.059340" lon="8.874928">
        <ele>7.764091</ele>
        <time>2026-03-20T14:08:13.162Z</time>
      </trkpt>
      <trkpt lat="53.060450" lon="8.876108">
        <ele>9.083022</ele>
        <time>2026-03-20T14:08:49.041Z</time>
      </trkpt>
      <trkpt lat="53.061003" lon="8.874549">
        <ele>10.357519</ele>
        <time>2026-03-20T14:09:19.528Z</time>
      </trkpt>
      <trkpt lat="53.060821" lon="8.874374">
        <ele>10.441655</ele>
        <time>2026-03-20T14:09:24.712Z</time>
      </trkpt>
      <trkpt lat="53.060780" lon="8.874314">
        <ele>10.418315</ele>
        <time>2026-03-20T14:09:26.095Z</time>
      </trkpt>
      <trkpt lat="53.060764" lon="8.874229">
        <ele>10.395432</ele>
        <time>2026-03-20T14:09:27.392Z</time>
      </trkpt>
      <trkpt lat="53.060783" lon="8.874044">
        <ele>10.347216</ele>
        <time>2026-03-20T14:09:30.098Z</time>
      </trkpt>
      <trkpt lat="53.060936" lon="8.873593">
        <ele>10.214167</ele>
        <time>2026-03-20T14:09:37.226Z</time>
      </trkpt>
      <trkpt lat="53.060981" lon="8.873460">
        <ele>10.174957</ele>
        <time>2026-03-20T14:09:39.186Z</time>
      </trkpt>
      <trkpt lat="53.061321" lon="8.872457">
        <ele>9.879120</ele>
        <time>2026-03-20T14:09:52.936Z</time>
      </trkpt>
      <trkpt lat="53.061374" lon="8.872347">
        <ele>9.842901</ele>
        <time>2026-03-20T14:09:54.525Z</time>
      </trkpt>
      <trkpt lat="53.061386" lon="8.872323">
        <ele>9.834880</ele>
        <time>2026-03-20T14:09:54.894Z</time>
      </trkpt>
      <trkpt lat="53.061620" lon="8.871697">
        <ele>9.680150</ele>
        <time>2026-03-20T14:10:04.099Z</time>
      </trkpt>
      <trkpt lat="53.061785" lon="8.871173">
        <ele>9.602766</ele>
        <time>2026-03-20T14:10:11.876Z</time>
      </trkpt>
      <trkpt lat="53.061867" lon="8.869993">
        <ele>9.447383</ele>
        <time>2026-03-20T14:10:27.603Z</time>
      </trkpt>
      <trkpt lat="53.061785" lon="8.871173">
        <ele>9.419611</ele>
        <time>2026-03-20T14:10:45.063Z</time>
      </trkpt>
      <trkpt lat="53.061620" lon="8.871697">
        <ele>9.645154</ele>
        <time>2026-03-20T14:10:53.816Z</time>
      </trkpt>
      <trkpt lat="53.061386" lon="8.872323">
        <ele>9.926225</ele>
        <time>2026-03-20T14:11:05.408Z</time>
      </trkpt>
      <trkpt lat="53.061374" lon="8.872347">
        <ele>9.938128</ele>
        <time>2026-03-20T14:11:05.939Z</time>
      </trkpt>
      <trkpt lat="53.061321" lon="8.872457">
        <ele>9.991882</ele>
        <time>2026-03-20T14:11:08.477Z</time>
      </trkpt>
      <trkpt lat="53.060981" lon="8.873460">
        <ele>10.430928</ele>
        <time>2026-03-20T14:11:27.361Z</time>
      </trkpt>
      <trkpt lat="53.060936" lon="8.873593">
        <ele>10.443068</ele>
        <time>2026-03-20T14:11:29.652Z</time>
      </trkpt>
      <trkpt lat="53.060783" lon="8.874044">
        <ele>10.252399</ele>
        <time>2026-03-20T14:11:36.780Z</time>
      </trkpt>
      <trkpt lat="53.060764" lon="8.874229">
        <ele>10.183302</ele>
        <time>2026-03-20T14:11:39.314Z</time>
      </trkpt>
      <trkpt lat="53.060780" lon="8.874314">
        <ele>10.150509</ele>
        <time>2026-03-20T14:11:40.478Z</time>
      </trkpt>
      <trkpt lat="53.060821" lon="8.874374">
        <ele>10.117061</ele>
        <time>2026-03-20T14:11:41.632Z</time>
      </trkpt>
      <trkpt lat="53.061003" lon="8.874549">
        <ele>9.988288</ele>
        <time>2026-03-20T14:11:46.237Z</time>
      </trkpt>
      <trkpt lat="53.061092" lon="8.874635">
        <ele>9.925239</ele>
        <time>2026-03-20T14:11:48.282Z</time>
      </trkpt>
      <trkpt lat="53.061861" lon="8.875376">
        <ele>9.380853</ele>
        <time>2026-03-20T14:12:05.721Z</time>
      </trkpt>
      <trkpt lat="53.061920" lon="8.875433">
        <ele>9.346815</ele>
        <time>2026-03-20T14:12:07.026Z</time>
      </trkpt>
      <trkpt lat="53.062063" lon="8.875570">
        <ele>9.277396</ele>
        <time>2026-03-20T14:12:10.314Z</time>
      </trkpt>
      <trkpt lat="53.062141" lon="8.875654">
        <ele>9.238309</ele>
        <time>2026-03-20T14:12:12.281Z</time>
      </trkpt>
      <trkpt lat="53.062200" lon="8.875730">
        <ele>9.206919</ele>
        <time>2026-03-20T14:12:13.800Z</time>
      </trkpt>
      <trkpt lat="53.062639" lon="8.876159">
        <ele>8.992738</ele>
        <time>2026-03-20T14:12:27.952Z</time>
      </trkpt>
      <trkpt lat="53.063333" lon="8.876999">
        <ele>8.631705</ele>
        <time>2026-03-20T14:12:53.190Z</time>
      </trkpt>
      <trkpt lat="53.063717" lon="8.877464">
        <ele>8.245968</ele>
        <time>2026-03-20T14:13:06.465Z</time>
      </trkpt>
      <trkpt lat="53.063939" lon="8.877723">
        <ele>8.010859</ele>
        <time>2026-03-20T14:13:13.738Z</time>
      </trkpt>
      <trkpt lat="53.064439" lon="8.878315">
        <ele>7.478730</ele>
        <time>2026-03-20T14:13:29.618Z</time>
      </trkpt>
      <trkpt lat="53.064958" lon="8.878933">
        <ele>6.887433</ele>
        <time>2026-03-20T14:13:45.987Z</time>
      </trkpt>
      <trkpt lat="53.065049" lon="8.879039">
        <ele>6.761214</ele>
        <time>2026-03-20T14:13:48.764Z</time>
      </trkpt>
      <trkpt lat="53.065101" lon="8.879101">
        <ele>6.688525</ele>
        <time>2026-03-20T14:13:49.943Z</time>
      </trkpt>
      <trkpt lat="53.065138" lon="8.879147">
        <ele>6.636044</ele>
        <time>2026-03-20T14:13:50.772Z</time>
      </trkpt>
      <trkpt lat="53.065288" lon="8.879329">
        <ele>6.425104</ele>
        <time>2026-03-20T14:13:54.174Z</time>
      </trkpt>
      <trkpt lat="53.065485" lon="8.879521">
        <ele>6.165685</ele>
        <time>2026-03-20T14:13:58.388Z</time>
      </trkpt>
      <trkpt lat="53.065602" lon="8.879631">
        <ele>6.012987</ele>
        <time>2026-03-20T14:14:00.887Z</time>
      </trkpt>
      <trkpt lat="53.066100" lon="8.880140">
        <ele>5.348897</ele>
        <time>2026-03-20T14:14:12.080Z</time>
      </trkpt>
      <trkpt lat="53.066128" lon="8.880164">
        <ele>5.313108</ele>
        <time>2026-03-20T14:14:12.725Z</time>
      </trkpt>
      <trkpt lat="53.066187" lon="8.880230">
        <ele>5.232327</ele>
        <time>2026-03-20T14:14:14.122Z</time>
      </trkpt>
      <trkpt lat="53.066248" lon="8.880263">
        <ele>5.159442</ele>
        <time>2026-03-20T14:14:15.387Z</time>
      </trkpt>
      <trkpt lat="53.066347" lon="8.880122">
        <ele>5.011374</ele>
        <time>2026-03-20T14:14:17.966Z</time>
      </trkpt>
      <trkpt lat="53.066921" lon="8.879506">
        <ele>4.792255</ele>
        <time>2026-03-20T14:14:31.716Z</time>
      </trkpt>
      <trkpt lat="53.068344" lon="8.878290">
        <ele>4.524261</ele>
        <time>2026-03-20T14:15:06.915Z</time>
      </trkpt>
      <trkpt lat="53.069381" lon="8.877402">
        <ele>4.726743</ele>
        <time>2026-03-20T14:15:33.639Z</time>
      </trkpt>
      <trkpt lat="53.070127" lon="8.876685">
        <ele>5.085171</ele>
        <time>2026-03-20T14:15:54.623Z</time>
      </trkpt>
      <trkpt lat="53.070217" lon="8.876878">
        <ele>5.154074</ele>
        <time>2026-03-20T14:15:58.385Z</time>
      </trkpt>
      <trkpt lat="53.070255" lon="8.876971">
        <ele>5.185793</ele>
        <time>2026-03-20T14:16:00.120Z</time>
      </trkpt>
      <trkpt lat="53.070438" lon="8.877377">
        <ele>5.328937</ele>
        <time>2026-03-20T14:16:07.914Z</time>
      </trkpt>
      <trkpt lat="53.070616" lon="8.877809">
        <ele>5.476671</ele>
        <time>2026-03-20T14:16:15.840Z</time>
      </trkpt>
      <trkpt lat="53.070790" lon="8.878221">
        <ele>5.594355</ele>
        <time>2026-03-20T14:16:23.374Z</time>
      </trkpt>
      <trkpt lat="53.070964" lon="8.878635">
        <ele>5.569329</ele>
        <time>2026-03-20T14:16:30.812Z</time>
      </trkpt>
      <trkpt lat="53.071160" lon="8.879104">
        <ele>5.541032</ele>
        <time>2026-03-20T14:16:38.729Z</time>
      </trkpt>
      <trkpt lat="53.071359" lon="8.879589">
        <ele>5.511941</ele>
        <time>2026-03-20T14:16:46.389Z</time>
      </trkpt>
      <trkpt lat="53.071481" lon="8.879904">
        <ele>5.493378</ele>
        <time>2026-03-20T14:16:52.702Z</time>
      </trkpt>
      <trkpt lat="53.071553" lon="8.880190">
        <ele>5.478018</ele>
        <time>2026-03-20T14:16:57.972Z</time>
      </trkpt>
      <trkpt lat="53.071610" lon="8.880541">
        <ele>5.460009</ele>
        <time>2026-03-20T14:17:04.193Z</time>
      </trkpt>
      <trkpt lat="53.071674" lon="8.880638">
        <ele>5.452873</ele>
        <time>2026-03-20T14:17:06.166Z</time>
      </trkpt>
      <trkpt lat="53.071717" lon="8.880724">
        <ele>5.446603</ele>
        <time>2026-03-20T14:17:07.692Z</time>
      </trkpt>
      <trkpt lat="53.071842" lon="8.880795">
        <ele>5.432385</ele>
        <time>2026-03-20T14:17:10.720Z</time>
      </trkpt>
      <trkpt lat="53.071885" lon="8.880780">
        <ele>5.427656</ele>
        <time>2026-03-20T14:17:11.723Z</time>
      </trkpt>
      <trkpt lat="53.071963" lon="8.880714">
        <ele>5.418236</ele>
        <time>2026-03-20T14:17:13.735Z</time>
      </trkpt>
      <trkpt lat="53.072065" lon="8.880828">
        <ele>5.405010</ele>
        <time>2026-03-20T14:17:17.290Z</time>
      </trkpt>
      <trkpt lat="53.072208" lon="8.880902">
        <ele>5.388890</ele>
        <time>2026-03-20T14:17:21.581Z</time>
      </trkpt>
      <trkpt lat="53.072795" lon="8.881328">
        <ele>5.319954</ele>
        <time>2026-03-20T14:17:40.042Z</time>
      </trkpt>
      <trkpt lat="53.073495" lon="8.881833">
        <ele>5.205961</ele>
        <time>2026-03-20T14:18:02.333Z</time>
      </trkpt>
      <trkpt lat="53.073587" lon="8.881826">
        <ele>5.178747</ele>
        <time>2026-03-20T14:18:04.388Z</time>
      </trkpt>
      <trkpt lat="53.074235" lon="8.882295">
        <ele>4.969952</ele>
        <time>2026-03-20T14:18:19.778Z</time>
      </trkpt>
      <trkpt lat="53.074416" lon="8.882456">
        <ele>4.909310</ele>
        <time>2026-03-20T14:18:24.245Z</time>
      </trkpt>
      <trkpt lat="53.074454" lon="8.882547">
        <ele>4.889637</ele>
        <time>2026-03-20T14:18:25.686Z</time>
      </trkpt>
      <trkpt lat="53.074447" lon="8.882654">
        <ele>4.870529</ele>
        <time>2026-03-20T14:18:27.085Z</time>
      </trkpt>
      <trkpt lat="53.074528" lon="8.882525">
        <ele>4.837404</ele>
        <time>2026-03-20T14:18:30.187Z</time>
      </trkpt>
      <trkpt lat="53.074604" lon="8.882465">
        <ele>4.812549</ele>
        <time>2026-03-20T14:18:32.550Z</time>
      </trkpt>
      <trkpt lat="53.074681" lon="8.882417">
        <ele>4.788253</ele>
        <time>2026-03-20T14:18:34.825Z</time>
      </trkpt>
      <trkpt lat="53.076615" lon="8.880638">
        <ele>4.592166</ele>
        <time>2026-03-20T14:19:38.151Z</time>
      </trkpt>
      <trkpt lat="53.076717" lon="8.880542">
        <ele>4.643973</ele>
        <time>2026-03-20T14:19:41.768Z</time>
      </trkpt>
      <trkpt lat="53.076834" lon="8.880433">
        <ele>4.703252</ele>
        <time>2026-03-20T14:19:45.936Z</time>
      </trkpt>
      <trkpt lat="53.076858" lon="8.880512">
        <ele>4.726765</ele>
        <time>2026-03-20T14:19:47.183Z</time>
      </trkpt>
      <trkpt lat="53.076925" lon="8.880733">
        <ele>4.792515</ele>
        <time>2026-03-20T14:19:50.849Z</time>
      </trkpt>
      <trkpt lat="53.076953" lon="8.880823">
        <ele>4.819435</ele>
        <time>2026-03-20T14:19:52.377Z</time>
      </trkpt>
      <trkpt lat="53.077050" lon="8.880711">
        <ele>4.871629</ele>
        <time>2026-03-20T14:19:56.213Z</time>
      </trkpt>
      <trkpt lat="53.077350" lon="8.880429">
        <ele>5.023954</ele>
        <time>2026-03-20T14:20:07.444Z</time>
      </trkpt>
      <trkpt lat="53.078042" lon="8.879844">
        <ele>5.322218</ele>
        <time>2026-03-20T14:20:31.698Z</time>
      </trkpt>
      <trkpt lat="53.078107" lon="8.879791">
        <ele>5.332521</ele>
        <time>2026-03-20T14:20:33.896Z</time>
      </trkpt>
      <trkpt lat="53.078611" lon="8.879370">
        <ele>5.412795</ele>
        <time>2026-03-20T14:20:51.250Z</time>
      </trkpt>
      <trkpt lat="53.078804" lon="8.879325">
        <ele>5.440538</ele>
        <time>2026-03-20T14:20:57.133Z</time>
      </trkpt>
      <trkpt lat="53.078932" lon="8.879142">
        <ele>5.464557</ele>
        <time>2026-03-20T14:21:02.112Z</time>
      </trkpt>
      <trkpt lat="53.079117" lon="8.879019">
        <ele>5.492916</ele>
        <time>2026-03-20T14:21:07.930Z</time>
      </trkpt>
      <trkpt lat="53.079223" lon="8.878951">
        <ele>5.509087</ele>
        <time>2026-03-20T14:21:11.190Z</time>
      </trkpt>
      <trkpt lat="53.079238" lon="8.878909">
        <ele>5.513265</ele>
        <time>2026-03-20T14:21:12.061Z</time>
      </trkpt>
      <trkpt lat="53.079267" lon="8.878830">
        <ele>5.521183</ele>
        <time>2026-03-20T14:21:13.602Z</time>
      </trkpt>
      <trkpt lat="53.079968" lon="8.878028">
        <ele>5.163338</ele>
        <time>2026-03-20T14:21:37.420Z</time>
      </trkpt>
      <trkpt lat="53.080561" lon="8.877474">
        <ele>4.716741</ele>
        <time>2026-03-20T14:21:55.393Z</time>
      </trkpt>
      <trkpt lat="53.080691" lon="8.877351">
        <ele>4.618535</ele>
        <time>2026-03-20T14:21:59.310Z</time>
      </trkpt>
      <trkpt lat="53.080966" lon="8.877094">
        <ele>4.411413</ele>
        <time>2026-03-20T14:22:07.590Z</time>
      </trkpt>
      <trkpt lat="53.081437" lon="8.876646">
        <ele>4.331010</ele>
        <time>2026-03-20T14:22:22.360Z</time>
      </trkpt>
      <trkpt lat="53.081812" lon="8.876318">
        <ele>4.292247</ele>
        <time>2026-03-20T14:22:34.319Z</time>
      </trkpt>
      <trkpt lat="53.081918" lon="8.876250">
        <ele>4.281852</ele>
        <time>2026-03-20T14:22:37.610Z</time>
      </trkpt>
      <trkpt lat="53.082019" lon="8.876246">
        <ele>4.272607</ele>
        <time>2026-03-20T14:22:40.602Z</time>
      </trkpt>
      <trkpt lat="53.082094" lon="8.876309">
        <ele>4.264920</ele>
        <time>2026-03-20T14:22:42.475Z</time>
      </trkpt>
      <trkpt lat="53.082153" lon="8.876270">
        <ele>4.259111</ele>
        <time>2026-03-20T14:22:43.982Z</time>
      </trkpt>
      <trkpt lat="53.082478" lon="8.875955">
        <ele>4.224698</ele>
        <time>2026-03-20T14:22:53.097Z</time>
      </trkpt>
      <trkpt lat="53.082552" lon="8.875889">
        <ele>4.217016</ele>
        <time>2026-03-20T14:22:55.256Z</time>
      </trkpt>
      <trkpt lat="53.082577" lon="8.875809">
        <ele>4.212060</ele>
        <time>2026-03-20T14:22:56.607Z</time>
      </trkpt>
      <trkpt lat="53.082626" lon="8.875688">
        <ele>4.233470</ele>
        <time>2026-03-20T14:22:59.431Z</time>
      </trkpt>
      <trkpt lat="53.082715" lon="8.875562">
        <ele>4.267467</ele>
        <time>2026-03-20T14:23:03.105Z</time>
      </trkpt>
      <trkpt lat="53.082849" lon="8.875441">
        <ele>4.311827</ele>
        <time>2026-03-20T14:23:07.948Z</time>
      </trkpt>
      <trkpt lat="53.083053" lon="8.875237">
        <ele>4.381076</ele>
        <time>2026-03-20T14:23:15.372Z</time>
      </trkpt>
      <trkpt lat="53.083270" lon="8.874982">
        <ele>4.458368</ele>
        <time>2026-03-20T14:23:23.503Z</time>
      </trkpt>
      <trkpt lat="53.083738" lon="8.874521">
        <ele>4.616606</ele>
        <time>2026-03-20T14:23:40.140Z</time>
      </trkpt>
      <trkpt lat="53.084059" lon="8.874211">
        <ele>4.724594</ele>
        <time>2026-03-20T14:23:51.332Z</time>
      </trkpt>
      <trkpt lat="53.084289" lon="8.873993">
        <ele>4.689214</ele>
        <time>2026-03-20T14:23:58.763Z</time>
      </trkpt>
      <trkpt lat="53.084375" lon="8.873907">
        <ele>4.669529</ele>
        <time>2026-03-20T14:24:01.512Z</time>
      </trkpt>
      <trkpt lat="53.084489" lon="8.873792">
        <ele>4.643375</ele>
        <time>2026-03-20T14:24:05.140Z</time>
      </trkpt>
      <trkpt lat="53.084666" lon="8.873631">
        <ele>4.603800</ele>
        <time>2026-03-20T14:24:10.595Z</time>
      </trkpt>
      <trkpt lat="53.084747" lon="8.873556">
        <ele>4.585614</ele>
        <time>2026-03-20T14:24:13.177Z</time>
      </trkpt>
      <trkpt lat="53.085114" lon="8.873264">
        <ele>4.505802</ele>
        <time>2026-03-20T14:24:24.624Z</time>
      </trkpt>
      <trkpt lat="53.085502" lon="8.873008">
        <ele>4.423911</ele>
        <time>2026-03-20T14:24:36.571Z</time>
      </trkpt>
      <trkpt lat="53.085566" lon="8.872962">
        <ele>4.410233</ele>
        <time>2026-03-20T14:24:38.172Z</time>
      </trkpt>
      <trkpt lat="53.085638" lon="8.872887">
        <ele>4.393568</ele>
        <time>2026-03-20T14:24:40.089Z</time>
      </trkpt>
      <trkpt lat="53.085582" lon="8.872644">
        <ele>4.404770</ele>
        <time>2026-03-20T14:24:43.671Z</time>
      </trkpt>
      <trkpt lat="53.085527" lon="8.872409">
        <ele>4.441740</ele>
        <time>2026-03-20T14:24:47.227Z</time>
      </trkpt>
      <trkpt lat="53.085566" lon="8.872378">
        <ele>4.452287</ele>
        <time>2026-03-20T14:24:48.283Z</time>
      </trkpt>
      <trkpt lat="53.085838" lon="8.872177">
        <ele>4.524913</ele>
        <time>2026-03-20T14:24:55.653Z</time>
      </trkpt>
      <trkpt lat="53.085901" lon="8.872132">
        <ele>4.541643</ele>
        <time>2026-03-20T14:24:57.378Z</time>
      </trkpt>
      <trkpt lat="53.086227" lon="8.871897">
        <ele>4.628340</ele>
        <time>2026-03-20T14:25:06.478Z</time>
      </trkpt>
      <trkpt lat="53.086321" lon="8.871830">
        <ele>4.653294</ele>
        <time>2026-03-20T14:25:09.093Z</time>
      </trkpt>
      <trkpt lat="53.086504" lon="8.871697">
        <ele>4.702025</ele>
        <time>2026-03-20T14:25:14.067Z</time>
      </trkpt>
      <trkpt lat="53.086711" lon="8.871560">
        <ele>4.756388</ele>
        <time>2026-03-20T14:25:19.374Z</time>
      </trkpt>
      <trkpt lat="53.087549" lon="8.870744">
        <ele>4.710232</ele>
        <time>2026-03-20T14:25:41.537Z</time>
      </trkpt>
      <trkpt lat="53.087584" lon="8.870860">
        <ele>4.698088</ele>
        <time>2026-03-20T14:25:43.186Z</time>
      </trkpt>
      <trkpt lat="53.087786" lon="8.870726">
        <ele>4.664219</ele>
        <time>2026-03-20T14:25:47.914Z</time>
      </trkpt>
      <trkpt lat="53.087989" lon="8.870648">
        <ele>4.631768</ele>
        <time>2026-03-20T14:25:52.502Z</time>
      </trkpt>
      <trkpt lat="53.088347" lon="8.870579">
        <ele>4.575633</ele>
        <time>2026-03-20T14:26:00.505Z</time>
      </trkpt>
      <trkpt lat="53.088646" lon="8.870560">
        <ele>4.548128</ele>
        <time>2026-03-20T14:26:07.223Z</time>
      </trkpt>
      <trkpt lat="53.089734" lon="8.870628">
        <ele>4.664481</ele>
        <time>2026-03-20T14:26:32.590Z</time>
      </trkpt>
      <trkpt lat="53.090670" lon="8.870704">
        <ele>4.831436</ele>
        <time>2026-03-20T14:26:55.566Z</time>
      </trkpt>
      <trkpt lat="53.090812" lon="8.870714">
        <ele>4.878279</ele>
        <time>2026-03-20T14:26:59.159Z</time>
      </trkpt>
      <trkpt lat="53.091275" lon="8.870748">
        <ele>5.031026</ele>
        <time>2026-03-20T14:27:10.810Z</time>
      </trkpt>
      <trkpt lat="53.091286" lon="8.870929">
        <ele>5.067034</ele>
        <time>2026-03-20T14:27:13.530Z</time>
      </trkpt>
      <trkpt lat="53.091327" lon="8.871447">
        <ele>5.170449</ele>
        <time>2026-03-20T14:27:21.197Z</time>
      </trkpt>
      <trkpt lat="53.091351" lon="8.871581">
        <ele>5.198126</ele>
        <time>2026-03-20T14:27:23.226Z</time>
      </trkpt>
      <trkpt lat="53.091421" lon="8.871754">
        <ele>5.239415</ele>
        <time>2026-03-20T14:27:26.250Z</time>
      </trkpt>
      <trkpt lat="53.091521" lon="8.871850">
        <ele>5.277458</ele>
        <time>2026-03-20T14:27:29.011Z</time>
      </trkpt>
      <trkpt lat="53.091661" lon="8.871904">
        <ele>5.324822</ele>
        <time>2026-03-20T14:27:32.458Z</time>
      </trkpt>
      <trkpt lat="53.091789" lon="8.871870">
        <ele>5.305248</ele>
        <time>2026-03-20T14:27:35.578Z</time>
      </trkpt>
      <trkpt lat="53.091972" lon="8.871729">
        <ele>5.273518</ele>
        <time>2026-03-20T14:27:40.404Z</time>
      </trkpt>
      <trkpt lat="53.092755" lon="8.871037">
        <ele>5.134027</ele>
        <time>2026-03-20T14:28:00.285Z</time>
      </trkpt>
      <trkpt lat="53.092881" lon="8.870925">
        <ele>5.111552</ele>
        <time>2026-03-20T14:28:03.457Z</time>
      </trkpt>
      <trkpt lat="53.093300" lon="8.870633">
        <ele>5.035366</ele>
        <time>2026-03-20T14:28:13.488Z</time>
      </trkpt>
      <trkpt lat="53.093503" lon="8.870573">
        <ele>4.935518</ele>
        <time>2026-03-20T14:28:17.951Z</time>
      </trkpt>
      <trkpt lat="53.093830" lon="8.870564">
        <ele>4.777133</ele>
        <time>2026-03-20T14:28:24.867Z</time>
      </trkpt>
      <trkpt lat="53.093884" lon="8.870564">
        <ele>4.750981</ele>
        <time>2026-03-20T14:28:25.992Z</time>
      </trkpt>
      <trkpt lat="53.094506" lon="8.870592">
        <ele>4.449641</ele>
        <time>2026-03-20T14:28:39.035Z</time>
      </trkpt>
      <trkpt lat="53.094650" lon="8.870599">
        <ele>4.379873</ele>
        <time>2026-03-20T14:28:42.213Z</time>
      </trkpt>
      <trkpt lat="53.095217" lon="8.870620">
        <ele>4.145226</ele>
        <time>2026-03-20T14:28:54.912Z</time>
      </trkpt>
      <trkpt lat="53.095904" lon="8.870629">
        <ele>4.014034</ele>
        <time>2026-03-20T14:29:09.579Z</time>
      </trkpt>
      <trkpt lat="53.096303" lon="8.870578">
        <ele>3.937618</ele>
        <time>2026-03-20T14:29:18.196Z</time>
      </trkpt>
      <trkpt lat="53.096452" lon="8.870517">
        <ele>3.908318</ele>
        <time>2026-03-20T14:29:21.841Z</time>
      </trkpt>
      <trkpt lat="53.096498" lon="8.870499">
        <ele>3.899294</ele>
        <time>2026-03-20T14:29:22.969Z</time>
      </trkpt>
      <trkpt lat="53.096984" lon="8.870208">
        <ele>3.881371</ele>
        <time>2026-03-20T14:29:35.852Z</time>
      </trkpt>
      <trkpt lat="53.097102" lon="8.870120">
        <ele>3.930100</ele>
        <time>2026-03-20T14:29:38.969Z</time>
      </trkpt>
      <trkpt lat="53.097196" lon="8.870059">
        <ele>3.968123</ele>
        <time>2026-03-20T14:29:41.389Z</time>
      </trkpt>
      <trkpt lat="53.097342" lon="8.870047">
        <ele>4.023216</ele>
        <time>2026-03-20T14:29:44.881Z</time>
      </trkpt>
      <trkpt lat="53.097556" lon="8.870128">
        <ele>4.105929</ele>
        <time>2026-03-20T14:29:50.182Z</time>
      </trkpt>
      <trkpt lat="53.097774" lon="8.870324">
        <ele>4.199300</ele>
        <time>2026-03-20T14:29:56.382Z</time>
      </trkpt>
      <trkpt lat="53.098142" lon="8.870693">
        <ele>4.361196</ele>
        <time>2026-03-20T14:30:07.545Z</time>
      </trkpt>
      <trkpt lat="53.098200" lon="8.870758">
        <ele>4.387545</ele>
        <time>2026-03-20T14:30:09.420Z</time>
      </trkpt>
      <trkpt lat="53.098268" lon="8.870826">
        <ele>4.417439</ele>
        <time>2026-03-20T14:30:11.531Z</time>
      </trkpt>
      <trkpt lat="53.098347" lon="8.870904">
        <ele>4.452053</ele>
        <time>2026-03-20T14:30:13.968Z</time>
      </trkpt>
      <trkpt lat="53.098445" lon="8.871001">
        <ele>4.495019</ele>
        <time>2026-03-20T14:30:16.893Z</time>
      </trkpt>
      <trkpt lat="53.098548" lon="8.871099">
        <ele>4.499363</ele>
        <time>2026-03-20T14:30:19.759Z</time>
      </trkpt>
      <trkpt lat="53.099047" lon="8.871564">
        <ele>4.459162</ele>
        <time>2026-03-20T14:30:32.510Z</time>
      </trkpt>
      <trkpt lat="53.099435" lon="8.871938">
        <ele>4.427644</ele>
        <time>2026-03-20T14:30:42.505Z</time>
      </trkpt>
      <trkpt lat="53.099530" lon="8.872032">
        <ele>4.419875</ele>
        <time>2026-03-20T14:30:44.996Z</time>
      </trkpt>
      <trkpt lat="53.099818" lon="8.872305">
        <ele>4.396577</ele>
        <time>2026-03-20T14:30:52.578Z</time>
      </trkpt>
      <trkpt lat="53.100846" lon="8.873276">
        <ele>4.259888</ele>
        <time>2026-03-20T14:31:18.795Z</time>
      </trkpt>
      <trkpt lat="53.101116" lon="8.873585">
        <ele>4.218084</ele>
        <time>2026-03-20T14:31:26.490Z</time>
      </trkpt>
      <trkpt lat="53.101232" lon="8.873796">
        <ele>4.196164</ele>
        <time>2026-03-20T14:31:30.473Z</time>
      </trkpt>
      <trkpt lat="53.101282" lon="8.874004">
        <ele>4.178998</ele>
        <time>2026-03-20T14:31:33.566Z</time>
      </trkpt>
      <trkpt lat="53.101303" lon="8.874785">
        <ele>4.167931</ele>
        <time>2026-03-20T14:31:44.143Z</time>
      </trkpt>
      <trkpt lat="53.101312" lon="8.875156">
        <ele>4.184834</ele>
        <time>2026-03-20T14:31:49.236Z</time>
      </trkpt>
      <trkpt lat="53.101332" lon="8.876001">
        <ele>4.223330</ele>
        <time>2026-03-20T14:32:01.685Z</time>
      </trkpt>
      <trkpt lat="53.101332" lon="8.876406">
        <ele>4.241766</ele>
        <time>2026-03-20T14:32:07.602Z</time>
      </trkpt>
      <trkpt lat="53.101333" lon="8.877158">
        <ele>4.275999</ele>
        <time>2026-03-20T14:32:17.631Z</time>
      </trkpt>
      <trkpt lat="53.101335" lon="8.877637">
        <ele>4.373012</ele>
        <time>2026-03-20T14:32:24.146Z</time>
      </trkpt>
      <trkpt lat="53.101335" lon="8.877823">
        <ele>4.435902</ele>
        <time>2026-03-20T14:32:26.855Z</time>
      </trkpt>
      <trkpt lat="53.101338" lon="8.878684">
        <ele>4.727029</ele>
        <time>2026-03-20T14:32:40.080Z</time>
      </trkpt>
      <trkpt lat="53.101338" lon="8.878814">
        <ele>4.770984</ele>
        <time>2026-03-20T14:32:42.160Z</time>
      </trkpt>
      <trkpt lat="53.101344" lon="8.879358">
        <ele>4.954953</ele>
        <time>2026-03-20T14:32:50.863Z</time>
      </trkpt>
      <trkpt lat="53.101319" lon="8.879549">
        <ele>5.021051</ele>
        <time>2026-03-20T14:32:54.635Z</time>
      </trkpt>
      <trkpt lat="53.101303" lon="8.879853">
        <ele>5.124234</ele>
        <time>2026-03-20T14:33:00.448Z</time>
      </trkpt>
      <trkpt lat="53.101300" lon="8.879948">
        <ele>5.156400</ele>
        <time>2026-03-20T14:33:02.285Z</time>
      </trkpt>
      <trkpt lat="53.101279" lon="8.880568">
        <ele>5.328363</ele>
        <time>2026-03-20T14:33:14.535Z</time>
      </trkpt>
      <trkpt lat="53.101278" lon="8.880595">
        <ele>5.332348</ele>
        <time>2026-03-20T14:33:15.067Z</time>
      </trkpt>
      <trkpt lat="53.101269" lon="8.880771">
        <ele>5.358369</ele>
        <time>2026-03-20T14:33:18.602Z</time>
      </trkpt>
      <trkpt lat="53.101236" lon="8.880964">
        <ele>5.387931</ele>
        <time>2026-03-20T14:33:22.509Z</time>
      </trkpt>
      <trkpt lat="53.101228" lon="8.881013">
        <ele>5.395411</ele>
        <time>2026-03-20T14:33:23.504Z</time>
      </trkpt>
      <trkpt lat="53.101076" lon="8.881709">
        <ele>5.504512</ele>
        <time>2026-03-20T14:33:37.266Z</time>
      </trkpt>
      <trkpt lat="53.101067" lon="8.881965">
        <ele>5.542289</ele>
        <time>2026-03-20T14:33:41.939Z</time>
      </trkpt>
      <trkpt lat="53.100916" lon="8.882369">
        <ele>5.612392</ele>
        <time>2026-03-20T14:33:48.695Z</time>
      </trkpt>
      <trkpt lat="53.100893" lon="8.882430">
        <ele>5.623003</ele>
        <time>2026-03-20T14:33:49.704Z</time>
      </trkpt>
      <trkpt lat="53.100847" lon="8.882554">
        <ele>5.644476</ele>
        <time>2026-03-20T14:33:51.744Z</time>
      </trkpt>
      <trkpt lat="53.100684" lon="8.882987">
        <ele>5.719763</ele>
        <time>2026-03-20T14:33:58.593Z</time>
      </trkpt>
      <trkpt lat="53.100646" lon="8.883089">
        <ele>5.737446</ele>
        <time>2026-03-20T14:34:00.171Z</time>
      </trkpt>
      <trkpt lat="53.100607" lon="8.883193">
        <ele>5.728831</ele>
        <time>2026-03-20T14:34:01.761Z</time>
      </trkpt>
      <trkpt lat="53.100527" lon="8.883407">
        <ele>5.700708</ele>
        <time>2026-03-20T14:34:04.996Z</time>
      </trkpt>
      <trkpt lat="53.100233" lon="8.884272">
        <ele>5.589819</ele>
        <time>2026-03-20T14:34:17.856Z</time>
      </trkpt>
      <trkpt lat="53.100187" lon="8.884418">
        <ele>5.571424</ele>
        <time>2026-03-20T14:34:20.158Z</time>
      </trkpt>
      <trkpt lat="53.100135" lon="8.884581">
        <ele>5.550832</ele>
        <time>2026-03-20T14:34:22.731Z</time>
      </trkpt>
      <trkpt lat="53.099930" lon="8.885243">
        <ele>5.467734</ele>
        <time>2026-03-20T14:34:33.178Z</time>
      </trkpt>
      <trkpt lat="53.099820" lon="8.885586">
        <ele>5.424352</ele>
        <time>2026-03-20T14:34:38.389Z</time>
      </trkpt>
      <trkpt lat="53.099723" lon="8.885887">
        <ele>5.406129</ele>
        <time>2026-03-20T14:34:42.939Z</time>
      </trkpt>
      <trkpt lat="53.099683" lon="8.886010">
        <ele>5.406129</ele>
        <time>2026-03-20T14:34:44.856Z</time>
      </trkpt>
      <trkpt lat="53.099493" lon="8.886593">
        <ele>5.406129</ele>
        <time>2026-03-20T14:34:53.841Z</time>
      </trkpt>
      <trkpt lat="53.099467" lon="8.886673">
        <ele>5.406129</ele>
        <time>2026-03-20T14:34:55.115Z</time>
      </trkpt>
      <trkpt lat="53.099356" lon="8.887015">
        <ele>5.406129</ele>
        <time>2026-03-20T14:35:00.505Z</time>
      </trkpt>
      <trkpt lat="53.099426" lon="8.887200">
        <ele>5.406129</ele>
        <time>2026-03-20T14:35:03.448Z</time>
      </trkpt>
    </trkseg>
  </trk>
</gpx>